<?xml version="1.0" encoding="UTF-8" standalone="no" ?>
<gpx xmlns="http://www.topografix.com/GPX/1/1" xmlns:xsi="http://www.w3.org/2001/XMLSchema-instance" xsi:schemaLocation="http://www.topografix.com/GPX/1/1 http://www.topografix.com/GPX/1/1/gpx.xsd" version="1.1" creator="VisuGPX - https://www.visugpx.com">
  <metadata>
    <name>ST_RAD-BOUZINIAC 10km</name>
    <desc><![CDATA[sortie vers bouziniac]]></desc>
  </metadata>
  <trk>
    <name><![CDATA[st RA 10km ]]></name>
    <trkseg>
      <trkpt lat="44.33566" lon="2.62961">
        <ele>643.2592773</ele>
        <time>2014-06-04T04:22:03Z</time>
      </trkpt>
      <trkpt lat="44.3356" lon="2.62984">
        <ele>673.0603027</ele>
        <time>2014-06-04T04:22:07Z</time>
      </trkpt>
      <trkpt lat="44.33564" lon="2.63009">
        <ele>659.1210938</ele>
        <time>2014-06-04T04:22:14Z</time>
      </trkpt>
      <trkpt lat="44.33568" lon="2.63027">
        <ele>651.9111328</ele>
        <time>2014-06-04T04:22:19Z</time>
      </trkpt>
      <trkpt lat="44.33565" lon="2.63036">
        <ele>642.2980957</ele>
        <time>2014-06-04T04:22:23Z</time>
      </trkpt>
      <trkpt lat="44.33562" lon="2.63047">
        <ele>638.9335938</ele>
        <time>2014-06-04T04:22:27Z</time>
      </trkpt>
      <trkpt lat="44.33562" lon="2.63055">
        <ele>639.4140625</ele>
        <time>2014-06-04T04:22:29Z</time>
      </trkpt>
      <trkpt lat="44.3356" lon="2.63075">
        <ele>637.972168</ele>
        <time>2014-06-04T04:22:34Z</time>
      </trkpt>
      <trkpt lat="44.33556" lon="2.63096">
        <ele>637.4914551</ele>
        <time>2014-06-04T04:22:39Z</time>
      </trkpt>
      <trkpt lat="44.33551" lon="2.63116">
        <ele>637.0107422</ele>
        <time>2014-06-04T04:22:45Z</time>
      </trkpt>
      <trkpt lat="44.33541" lon="2.63138">
        <ele>637.4914551</ele>
        <time>2014-06-04T04:22:51Z</time>
      </trkpt>
      <trkpt lat="44.33534" lon="2.63161">
        <ele>638.9335938</ele>
        <time>2014-06-04T04:22:57Z</time>
      </trkpt>
      <trkpt lat="44.3353" lon="2.63179">
        <ele>638.9335938</ele>
        <time>2014-06-04T04:23:02Z</time>
      </trkpt>
      <trkpt lat="44.33525" lon="2.63195">
        <ele>637.972168</ele>
        <time>2014-06-04T04:23:07Z</time>
      </trkpt>
      <trkpt lat="44.33522" lon="2.6321">
        <ele>638.4528809</ele>
        <time>2014-06-04T04:23:11Z</time>
      </trkpt>
      <trkpt lat="44.33518" lon="2.6323">
        <ele>639.8947754</ele>
        <time>2014-06-04T04:23:16Z</time>
      </trkpt>
      <trkpt lat="44.33513" lon="2.63247">
        <ele>639.8947754</ele>
        <time>2014-06-04T04:23:21Z</time>
      </trkpt>
      <trkpt lat="44.33507" lon="2.6327">
        <ele>639.8947754</ele>
        <time>2014-06-04T04:23:27Z</time>
      </trkpt>
      <trkpt lat="44.33502" lon="2.6329">
        <ele>641.8173828</ele>
        <time>2014-06-04T04:23:32Z</time>
      </trkpt>
      <trkpt lat="44.33497" lon="2.6331">
        <ele>643.2592773</ele>
        <time>2014-06-04T04:23:37Z</time>
      </trkpt>
      <trkpt lat="44.33491" lon="2.63331">
        <ele>643.7399902</ele>
        <time>2014-06-04T04:23:43Z</time>
      </trkpt>
      <trkpt lat="44.33486" lon="2.63351">
        <ele>642.2980957</ele>
        <time>2014-06-04T04:23:48Z</time>
      </trkpt>
      <trkpt lat="44.33483" lon="2.63367">
        <ele>642.7788086</ele>
        <time>2014-06-04T04:23:52Z</time>
      </trkpt>
      <trkpt lat="44.33482" lon="2.63384">
        <ele>640.3754883</ele>
        <time>2014-06-04T04:23:57Z</time>
      </trkpt>
      <trkpt lat="44.33481" lon="2.63398">
        <ele>638.9335938</ele>
        <time>2014-06-04T04:24:01Z</time>
      </trkpt>
      <trkpt lat="44.3348" lon="2.63413">
        <ele>637.0107422</ele>
        <time>2014-06-04T04:24:05Z</time>
      </trkpt>
      <trkpt lat="44.33477" lon="2.63435">
        <ele>636.5302734</ele>
        <time>2014-06-04T04:24:11Z</time>
      </trkpt>
      <trkpt lat="44.33473" lon="2.63449">
        <ele>635.0881348</ele>
        <time>2014-06-04T04:24:16Z</time>
      </trkpt>
      <trkpt lat="44.33466" lon="2.6347">
        <ele>634.126709</ele>
        <time>2014-06-04T04:24:22Z</time>
      </trkpt>
      <trkpt lat="44.33462" lon="2.63488">
        <ele>632.2041016</ele>
        <time>2014-06-04T04:24:27Z</time>
      </trkpt>
      <trkpt lat="44.33457" lon="2.63501">
        <ele>630.762207</ele>
        <time>2014-06-04T04:24:31Z</time>
      </trkpt>
      <trkpt lat="44.33451" lon="2.63519">
        <ele>630.2814941</ele>
        <time>2014-06-04T04:24:36Z</time>
      </trkpt>
      <trkpt lat="44.33451" lon="2.63535">
        <ele>629.8007813</ele>
        <time>2014-06-04T04:24:41Z</time>
      </trkpt>
      <trkpt lat="44.33449" lon="2.63558">
        <ele>628.8395996</ele>
        <time>2014-06-04T04:24:47Z</time>
      </trkpt>
      <trkpt lat="44.33443" lon="2.63575">
        <ele>628.8395996</ele>
        <time>2014-06-04T04:24:52Z</time>
      </trkpt>
      <trkpt lat="44.33434" lon="2.63589">
        <ele>630.762207</ele>
        <time>2014-06-04T04:24:57Z</time>
      </trkpt>
      <trkpt lat="44.33425" lon="2.63598">
        <ele>630.762207</ele>
        <time>2014-06-04T04:25:01Z</time>
      </trkpt>
      <trkpt lat="44.33418" lon="2.63607">
        <ele>631.7233887</ele>
        <time>2014-06-04T04:25:05Z</time>
      </trkpt>
      <trkpt lat="44.33409" lon="2.63618">
        <ele>632.2041016</ele>
        <time>2014-06-04T04:25:11Z</time>
      </trkpt>
      <trkpt lat="44.33401" lon="2.63628">
        <ele>632.6848145</ele>
        <time>2014-06-04T04:25:17Z</time>
      </trkpt>
      <trkpt lat="44.33394" lon="2.63638">
        <ele>634.126709</ele>
        <time>2014-06-04T04:25:23Z</time>
      </trkpt>
      <trkpt lat="44.33386" lon="2.63652">
        <ele>636.0495605</ele>
        <time>2014-06-04T04:25:30Z</time>
      </trkpt>
      <trkpt lat="44.3338" lon="2.63663">
        <ele>637.4914551</ele>
        <time>2014-06-04T04:25:35Z</time>
      </trkpt>
      <trkpt lat="44.33371" lon="2.63678">
        <ele>639.4140625</ele>
        <time>2014-06-04T04:25:42Z</time>
      </trkpt>
      <trkpt lat="44.33363" lon="2.63692">
        <ele>641.3366699</ele>
        <time>2014-06-04T04:25:48Z</time>
      </trkpt>
      <trkpt lat="44.33359" lon="2.63705">
        <ele>643.7399902</ele>
        <time>2014-06-04T04:25:53Z</time>
      </trkpt>
      <trkpt lat="44.33355" lon="2.63718">
        <ele>645.6625977</ele>
        <time>2014-06-04T04:25:58Z</time>
      </trkpt>
      <trkpt lat="44.33351" lon="2.63733">
        <ele>647.1044922</ele>
        <time>2014-06-04T04:26:04Z</time>
      </trkpt>
      <trkpt lat="44.33348" lon="2.63747">
        <ele>647.1044922</ele>
        <time>2014-06-04T04:26:10Z</time>
      </trkpt>
      <trkpt lat="44.33346" lon="2.63755">
        <ele>647.5852051</ele>
        <time>2014-06-04T04:26:13Z</time>
      </trkpt>
      <trkpt lat="44.33339" lon="2.6377">
        <ele>649.9885254</ele>
        <time>2014-06-04T04:26:19Z</time>
      </trkpt>
      <trkpt lat="44.33335" lon="2.6378">
        <ele>651.4304199</ele>
        <time>2014-06-04T04:26:23Z</time>
      </trkpt>
      <trkpt lat="44.33334" lon="2.63788">
        <ele>653.3532715</ele>
        <time>2014-06-04T04:26:27Z</time>
      </trkpt>
      <trkpt lat="44.33331" lon="2.63803">
        <ele>653.3532715</ele>
        <time>2014-06-04T04:26:32Z</time>
      </trkpt>
      <trkpt lat="44.33326" lon="2.63818">
        <ele>653.8339844</ele>
        <time>2014-06-04T04:26:38Z</time>
      </trkpt>
      <trkpt lat="44.33323" lon="2.63826">
        <ele>653.3532715</ele>
        <time>2014-06-04T04:26:41Z</time>
      </trkpt>
      <trkpt lat="44.33319" lon="2.63849">
        <ele>655.7565918</ele>
        <time>2014-06-04T04:26:49Z</time>
      </trkpt>
      <trkpt lat="44.33315" lon="2.63866">
        <ele>655.2758789</ele>
        <time>2014-06-04T04:26:55Z</time>
      </trkpt>
      <trkpt lat="44.33312" lon="2.63882">
        <ele>656.2370605</ele>
        <time>2014-06-04T04:27:00Z</time>
      </trkpt>
      <trkpt lat="44.33307" lon="2.63901">
        <ele>656.7177734</ele>
        <time>2014-06-04T04:27:07Z</time>
      </trkpt>
      <trkpt lat="44.33302" lon="2.63919">
        <ele>658.1599121</ele>
        <time>2014-06-04T04:27:13Z</time>
      </trkpt>
      <trkpt lat="44.33299" lon="2.63937">
        <ele>659.1210938</ele>
        <time>2014-06-04T04:27:19Z</time>
      </trkpt>
      <trkpt lat="44.33297" lon="2.63956">
        <ele>658.6403809</ele>
        <time>2014-06-04T04:27:25Z</time>
      </trkpt>
      <trkpt lat="44.33295" lon="2.63976">
        <ele>660.5629883</ele>
        <time>2014-06-04T04:27:31Z</time>
      </trkpt>
      <trkpt lat="44.33291" lon="2.63996">
        <ele>661.5244141</ele>
        <time>2014-06-04T04:27:37Z</time>
      </trkpt>
      <trkpt lat="44.33286" lon="2.64016">
        <ele>662.9663086</ele>
        <time>2014-06-04T04:27:43Z</time>
      </trkpt>
      <trkpt lat="44.33282" lon="2.64037">
        <ele>663.9274902</ele>
        <time>2014-06-04T04:27:49Z</time>
      </trkpt>
      <trkpt lat="44.33279" lon="2.64055">
        <ele>664.888916</ele>
        <time>2014-06-04T04:27:54Z</time>
      </trkpt>
      <trkpt lat="44.33277" lon="2.64073">
        <ele>664.888916</ele>
        <time>2014-06-04T04:27:59Z</time>
      </trkpt>
      <trkpt lat="44.33273" lon="2.64096">
        <ele>664.4082031</ele>
        <time>2014-06-04T04:28:06Z</time>
      </trkpt>
      <trkpt lat="44.3327" lon="2.64113">
        <ele>663.9274902</ele>
        <time>2014-06-04T04:28:11Z</time>
      </trkpt>
      <trkpt lat="44.33266" lon="2.64128">
        <ele>663.9274902</ele>
        <time>2014-06-04T04:28:16Z</time>
      </trkpt>
      <trkpt lat="44.33263" lon="2.64143">
        <ele>665.3696289</ele>
        <time>2014-06-04T04:28:21Z</time>
      </trkpt>
      <trkpt lat="44.33259" lon="2.64163">
        <ele>666.3308105</ele>
        <time>2014-06-04T04:28:27Z</time>
      </trkpt>
      <trkpt lat="44.33257" lon="2.64178">
        <ele>666.3308105</ele>
        <time>2014-06-04T04:28:32Z</time>
      </trkpt>
      <trkpt lat="44.33252" lon="2.64198">
        <ele>666.8115234</ele>
        <time>2014-06-04T04:28:38Z</time>
      </trkpt>
      <trkpt lat="44.33244" lon="2.64219">
        <ele>667.2922363</ele>
        <time>2014-06-04T04:28:45Z</time>
      </trkpt>
      <trkpt lat="44.3324" lon="2.64234">
        <ele>667.2922363</ele>
        <time>2014-06-04T04:28:50Z</time>
      </trkpt>
      <trkpt lat="44.33233" lon="2.64251">
        <ele>667.7727051</ele>
        <time>2014-06-04T04:28:56Z</time>
      </trkpt>
      <trkpt lat="44.33227" lon="2.64266">
        <ele>668.2536621</ele>
        <time>2014-06-04T04:29:01Z</time>
      </trkpt>
      <trkpt lat="44.3322" lon="2.64284">
        <ele>669.2150879</ele>
        <time>2014-06-04T04:29:07Z</time>
      </trkpt>
      <trkpt lat="44.33212" lon="2.64303">
        <ele>670.1762695</ele>
        <time>2014-06-04T04:29:14Z</time>
      </trkpt>
      <trkpt lat="44.33205" lon="2.64322">
        <ele>670.6569824</ele>
        <time>2014-06-04T04:29:20Z</time>
      </trkpt>
      <trkpt lat="44.33199" lon="2.64337">
        <ele>670.1762695</ele>
        <time>2014-06-04T04:29:25Z</time>
      </trkpt>
      <trkpt lat="44.33192" lon="2.64354">
        <ele>670.1762695</ele>
        <time>2014-06-04T04:29:31Z</time>
      </trkpt>
      <trkpt lat="44.33185" lon="2.64372">
        <ele>670.6569824</ele>
        <time>2014-06-04T04:29:37Z</time>
      </trkpt>
      <trkpt lat="44.33181" lon="2.64387">
        <ele>671.6181641</ele>
        <time>2014-06-04T04:29:42Z</time>
      </trkpt>
      <trkpt lat="44.33176" lon="2.644">
        <ele>672.5795898</ele>
        <time>2014-06-04T04:29:46Z</time>
      </trkpt>
      <trkpt lat="44.33171" lon="2.64417">
        <ele>673.5410156</ele>
        <time>2014-06-04T04:29:51Z</time>
      </trkpt>
      <trkpt lat="44.33166" lon="2.64438">
        <ele>673.5410156</ele>
        <time>2014-06-04T04:29:57Z</time>
      </trkpt>
      <trkpt lat="44.33162" lon="2.64451">
        <ele>674.5021973</ele>
        <time>2014-06-04T04:30:01Z</time>
      </trkpt>
      <trkpt lat="44.33158" lon="2.64468">
        <ele>675.4633789</ele>
        <time>2014-06-04T04:30:06Z</time>
      </trkpt>
      <trkpt lat="44.33153" lon="2.64481">
        <ele>675.4633789</ele>
        <time>2014-06-04T04:30:10Z</time>
      </trkpt>
      <trkpt lat="44.33146" lon="2.64496">
        <ele>675.9440918</ele>
        <time>2014-06-04T04:30:15Z</time>
      </trkpt>
      <trkpt lat="44.33139" lon="2.64511">
        <ele>676.9055176</ele>
        <time>2014-06-04T04:30:20Z</time>
      </trkpt>
      <trkpt lat="44.33134" lon="2.64528">
        <ele>676.4248047</ele>
        <time>2014-06-04T04:30:25Z</time>
      </trkpt>
      <trkpt lat="44.33128" lon="2.64545">
        <ele>675.9440918</ele>
        <time>2014-06-04T04:30:31Z</time>
      </trkpt>
      <trkpt lat="44.33123" lon="2.64559">
        <ele>675.9440918</ele>
        <time>2014-06-04T04:30:35Z</time>
      </trkpt>
      <trkpt lat="44.33117" lon="2.6457">
        <ele>674.9829102</ele>
        <time>2014-06-04T04:30:39Z</time>
      </trkpt>
      <trkpt lat="44.33109" lon="2.64586">
        <ele>674.5021973</ele>
        <time>2014-06-04T04:30:44Z</time>
      </trkpt>
      <trkpt lat="44.33106" lon="2.64607">
        <ele>674.5021973</ele>
        <time>2014-06-04T04:30:50Z</time>
      </trkpt>
      <trkpt lat="44.33104" lon="2.64628">
        <ele>676.4248047</ele>
        <time>2014-06-04T04:30:56Z</time>
      </trkpt>
      <trkpt lat="44.331" lon="2.64642">
        <ele>676.9055176</ele>
        <time>2014-06-04T04:31:00Z</time>
      </trkpt>
      <trkpt lat="44.33097" lon="2.6466">
        <ele>676.9055176</ele>
        <time>2014-06-04T04:31:05Z</time>
      </trkpt>
      <trkpt lat="44.33094" lon="2.64678">
        <ele>677.3862305</ele>
        <time>2014-06-04T04:31:10Z</time>
      </trkpt>
      <trkpt lat="44.3309" lon="2.64696">
        <ele>677.3862305</ele>
        <time>2014-06-04T04:31:15Z</time>
      </trkpt>
      <trkpt lat="44.33086" lon="2.64716">
        <ele>675.9440918</ele>
        <time>2014-06-04T04:31:20Z</time>
      </trkpt>
      <trkpt lat="44.3308" lon="2.64732">
        <ele>674.5021973</ele>
        <time>2014-06-04T04:31:25Z</time>
      </trkpt>
      <trkpt lat="44.33077" lon="2.64745">
        <ele>673.5410156</ele>
        <time>2014-06-04T04:31:29Z</time>
      </trkpt>
      <trkpt lat="44.33073" lon="2.64764">
        <ele>671.6181641</ele>
        <time>2014-06-04T04:31:34Z</time>
      </trkpt>
      <trkpt lat="44.33072" lon="2.64783">
        <ele>671.1376953</ele>
        <time>2014-06-04T04:31:39Z</time>
      </trkpt>
      <trkpt lat="44.33071" lon="2.64801">
        <ele>668.734375</ele>
        <time>2014-06-04T04:31:44Z</time>
      </trkpt>
      <trkpt lat="44.3307" lon="2.64812">
        <ele>666.8115234</ele>
        <time>2014-06-04T04:31:47Z</time>
      </trkpt>
      <trkpt lat="44.33067" lon="2.64832">
        <ele>666.3308105</ele>
        <time>2014-06-04T04:31:52Z</time>
      </trkpt>
      <trkpt lat="44.33066" lon="2.64835">
        <ele>665.8503418</ele>
        <time>2014-06-04T04:31:53Z</time>
      </trkpt>
      <trkpt lat="44.33053" lon="2.64848">
        <ele>662.9663086</ele>
        <time>2014-06-04T04:31:59Z</time>
      </trkpt>
      <trkpt lat="44.33047" lon="2.64848">
        <ele>662.4855957</ele>
        <time>2014-06-04T04:32:01Z</time>
      </trkpt>
      <trkpt lat="44.33039" lon="2.64846">
        <ele>662.005127</ele>
        <time>2014-06-04T04:32:04Z</time>
      </trkpt>
      <trkpt lat="44.33033" lon="2.64847">
        <ele>661.0437012</ele>
        <time>2014-06-04T04:32:06Z</time>
      </trkpt>
      <trkpt lat="44.33021" lon="2.64844">
        <ele>660.0822754</ele>
        <time>2014-06-04T04:32:11Z</time>
      </trkpt>
      <trkpt lat="44.33006" lon="2.64841">
        <ele>658.6403809</ele>
        <time>2014-06-04T04:32:17Z</time>
      </trkpt>
      <trkpt lat="44.32994" lon="2.64838">
        <ele>659.6018066</ele>
        <time>2014-06-04T04:32:22Z</time>
      </trkpt>
      <trkpt lat="44.3298" lon="2.64834">
        <ele>660.0822754</ele>
        <time>2014-06-04T04:32:27Z</time>
      </trkpt>
      <trkpt lat="44.32967" lon="2.6483">
        <ele>659.6018066</ele>
        <time>2014-06-04T04:32:32Z</time>
      </trkpt>
      <trkpt lat="44.32954" lon="2.64827">
        <ele>659.6018066</ele>
        <time>2014-06-04T04:32:37Z</time>
      </trkpt>
      <trkpt lat="44.32943" lon="2.64825">
        <ele>659.6018066</ele>
        <time>2014-06-04T04:32:41Z</time>
      </trkpt>
      <trkpt lat="44.32929" lon="2.64822">
        <ele>659.1210938</ele>
        <time>2014-06-04T04:32:47Z</time>
      </trkpt>
      <trkpt lat="44.32915" lon="2.6482">
        <ele>658.6403809</ele>
        <time>2014-06-04T04:32:52Z</time>
      </trkpt>
      <trkpt lat="44.32901" lon="2.64818">
        <ele>657.1984863</ele>
        <time>2014-06-04T04:32:57Z</time>
      </trkpt>
      <trkpt lat="44.32888" lon="2.64815">
        <ele>658.1599121</ele>
        <time>2014-06-04T04:33:02Z</time>
      </trkpt>
      <trkpt lat="44.32875" lon="2.64811">
        <ele>656.7177734</ele>
        <time>2014-06-04T04:33:07Z</time>
      </trkpt>
      <trkpt lat="44.32859" lon="2.64808">
        <ele>656.2370605</ele>
        <time>2014-06-04T04:33:13Z</time>
      </trkpt>
      <trkpt lat="44.3284" lon="2.64807">
        <ele>656.7177734</ele>
        <time>2014-06-04T04:33:20Z</time>
      </trkpt>
      <trkpt lat="44.32826" lon="2.64804">
        <ele>656.2370605</ele>
        <time>2014-06-04T04:33:26Z</time>
      </trkpt>
      <trkpt lat="44.3281" lon="2.64798">
        <ele>654.795166</ele>
        <time>2014-06-04T04:33:32Z</time>
      </trkpt>
      <trkpt lat="44.32796" lon="2.64791">
        <ele>653.3532715</ele>
        <time>2014-06-04T04:33:37Z</time>
      </trkpt>
      <trkpt lat="44.32779" lon="2.64788">
        <ele>650.4692383</ele>
        <time>2014-06-04T04:33:43Z</time>
      </trkpt>
      <trkpt lat="44.32765" lon="2.64789">
        <ele>648.065918</ele>
        <time>2014-06-04T04:33:48Z</time>
      </trkpt>
      <trkpt lat="44.32753" lon="2.64791">
        <ele>645.6625977</ele>
        <time>2014-06-04T04:33:52Z</time>
      </trkpt>
      <trkpt lat="44.32742" lon="2.64789">
        <ele>643.2592773</ele>
        <time>2014-06-04T04:33:56Z</time>
      </trkpt>
      <trkpt lat="44.32729" lon="2.64785">
        <ele>640.855957</ele>
        <time>2014-06-04T04:34:01Z</time>
      </trkpt>
      <trkpt lat="44.32716" lon="2.64788">
        <ele>640.3754883</ele>
        <time>2014-06-04T04:34:06Z</time>
      </trkpt>
      <trkpt lat="44.32705" lon="2.6478">
        <ele>639.8947754</ele>
        <time>2014-06-04T04:34:11Z</time>
      </trkpt>
      <trkpt lat="44.32694" lon="2.64776">
        <ele>637.0107422</ele>
        <time>2014-06-04T04:34:16Z</time>
      </trkpt>
      <trkpt lat="44.32682" lon="2.64777">
        <ele>636.0495605</ele>
        <time>2014-06-04T04:34:21Z</time>
      </trkpt>
      <trkpt lat="44.32669" lon="2.64776">
        <ele>635.0881348</ele>
        <time>2014-06-04T04:34:26Z</time>
      </trkpt>
      <trkpt lat="44.32667" lon="2.64775">
        <ele>634.6074219</ele>
        <time>2014-06-04T04:34:27Z</time>
      </trkpt>
      <trkpt lat="44.32653" lon="2.64778">
        <ele>635.5686035</ele>
        <time>2014-06-04T04:34:32Z</time>
      </trkpt>
      <trkpt lat="44.32639" lon="2.64783">
        <ele>637.4914551</ele>
        <time>2014-06-04T04:34:38Z</time>
      </trkpt>
      <trkpt lat="44.32625" lon="2.64791">
        <ele>639.4140625</ele>
        <time>2014-06-04T04:34:44Z</time>
      </trkpt>
      <trkpt lat="44.32614" lon="2.64796">
        <ele>641.3366699</ele>
        <time>2014-06-04T04:34:49Z</time>
      </trkpt>
      <trkpt lat="44.326" lon="2.64799">
        <ele>641.8173828</ele>
        <time>2014-06-04T04:34:55Z</time>
      </trkpt>
      <trkpt lat="44.3259" lon="2.64799">
        <ele>642.7788086</ele>
        <time>2014-06-04T04:35:00Z</time>
      </trkpt>
      <trkpt lat="44.32578" lon="2.648">
        <ele>642.2980957</ele>
        <time>2014-06-04T04:35:06Z</time>
      </trkpt>
      <trkpt lat="44.32563" lon="2.64801">
        <ele>643.2592773</ele>
        <time>2014-06-04T04:35:12Z</time>
      </trkpt>
      <trkpt lat="44.3255" lon="2.648">
        <ele>644.2207031</ele>
        <time>2014-06-04T04:35:18Z</time>
      </trkpt>
      <trkpt lat="44.32538" lon="2.64799">
        <ele>646.1433105</ele>
        <time>2014-06-04T04:35:23Z</time>
      </trkpt>
      <trkpt lat="44.32529" lon="2.64796">
        <ele>645.1818848</ele>
        <time>2014-06-04T04:35:27Z</time>
      </trkpt>
      <trkpt lat="44.32513" lon="2.64793">
        <ele>646.1433105</ele>
        <time>2014-06-04T04:35:34Z</time>
      </trkpt>
      <trkpt lat="44.32502" lon="2.64792">
        <ele>649.0270996</ele>
        <time>2014-06-04T04:35:39Z</time>
      </trkpt>
      <trkpt lat="44.32492" lon="2.6479">
        <ele>650.949707</ele>
        <time>2014-06-04T04:35:43Z</time>
      </trkpt>
      <trkpt lat="44.32476" lon="2.64784">
        <ele>654.3146973</ele>
        <time>2014-06-04T04:35:50Z</time>
      </trkpt>
      <trkpt lat="44.32457" lon="2.64775">
        <ele>656.7177734</ele>
        <time>2014-06-04T04:35:58Z</time>
      </trkpt>
      <trkpt lat="44.32455" lon="2.64775">
        <ele>657.1984863</ele>
        <time>2014-06-04T04:35:59Z</time>
      </trkpt>
      <trkpt lat="44.32446" lon="2.64772">
        <ele>658.1599121</ele>
        <time>2014-06-04T04:36:03Z</time>
      </trkpt>
      <trkpt lat="44.32436" lon="2.64767">
        <ele>658.6403809</ele>
        <time>2014-06-04T04:36:08Z</time>
      </trkpt>
      <trkpt lat="44.32434" lon="2.64765">
        <ele>658.1599121</ele>
        <time>2014-06-04T04:36:09Z</time>
      </trkpt>
      <trkpt lat="44.32419" lon="2.64759">
        <ele>659.6018066</ele>
        <time>2014-06-04T04:36:16Z</time>
      </trkpt>
      <trkpt lat="44.32406" lon="2.64752">
        <ele>662.005127</ele>
        <time>2014-06-04T04:36:22Z</time>
      </trkpt>
      <trkpt lat="44.32392" lon="2.64748">
        <ele>663.9274902</ele>
        <time>2014-06-04T04:36:28Z</time>
      </trkpt>
      <trkpt lat="44.32379" lon="2.64745">
        <ele>665.3696289</ele>
        <time>2014-06-04T04:36:34Z</time>
      </trkpt>
      <trkpt lat="44.32368" lon="2.64745">
        <ele>666.3308105</ele>
        <time>2014-06-04T04:36:38Z</time>
      </trkpt>
      <trkpt lat="44.32363" lon="2.64746">
        <ele>667.2922363</ele>
        <time>2014-06-04T04:36:40Z</time>
      </trkpt>
      <trkpt lat="44.32354" lon="2.64748">
        <ele>667.2922363</ele>
        <time>2014-06-04T04:36:44Z</time>
      </trkpt>
      <trkpt lat="44.32349" lon="2.6475">
        <ele>667.7727051</ele>
        <time>2014-06-04T04:36:46Z</time>
      </trkpt>
      <trkpt lat="44.32339" lon="2.64757">
        <ele>668.2536621</ele>
        <time>2014-06-04T04:36:51Z</time>
      </trkpt>
      <trkpt lat="44.32331" lon="2.64766">
        <ele>669.2150879</ele>
        <time>2014-06-04T04:36:55Z</time>
      </trkpt>
      <trkpt lat="44.32324" lon="2.6478">
        <ele>669.2150879</ele>
        <time>2014-06-04T04:37:00Z</time>
      </trkpt>
      <trkpt lat="44.32316" lon="2.64798">
        <ele>670.1762695</ele>
        <time>2014-06-04T04:37:06Z</time>
      </trkpt>
      <trkpt lat="44.3231" lon="2.64813">
        <ele>671.6181641</ele>
        <time>2014-06-04T04:37:11Z</time>
      </trkpt>
      <trkpt lat="44.32307" lon="2.64819">
        <ele>671.6181641</ele>
        <time>2014-06-04T04:37:13Z</time>
      </trkpt>
      <trkpt lat="44.32296" lon="2.64815">
        <ele>672.5795898</ele>
        <time>2014-06-04T04:37:18Z</time>
      </trkpt>
      <trkpt lat="44.32294" lon="2.64808">
        <ele>672.5795898</ele>
        <time>2014-06-04T04:37:20Z</time>
      </trkpt>
      <trkpt lat="44.32284" lon="2.64786">
        <ele>674.0214844</ele>
        <time>2014-06-04T04:37:27Z</time>
      </trkpt>
      <trkpt lat="44.32282" lon="2.64784">
        <ele>674.5021973</ele>
        <time>2014-06-04T04:37:28Z</time>
      </trkpt>
      <trkpt lat="44.32277" lon="2.64767">
        <ele>676.4248047</ele>
        <time>2014-06-04T04:37:33Z</time>
      </trkpt>
      <trkpt lat="44.32274" lon="2.64756">
        <ele>676.9055176</ele>
        <time>2014-06-04T04:37:36Z</time>
      </trkpt>
      <trkpt lat="44.3227" lon="2.64734">
        <ele>678.3474121</ele>
        <time>2014-06-04T04:37:43Z</time>
      </trkpt>
      <trkpt lat="44.32265" lon="2.64717">
        <ele>679.3085938</ele>
        <time>2014-06-04T04:37:48Z</time>
      </trkpt>
      <trkpt lat="44.3226" lon="2.64704">
        <ele>680.7507324</ele>
        <time>2014-06-04T04:37:52Z</time>
      </trkpt>
      <trkpt lat="44.32256" lon="2.64696">
        <ele>681.7119141</ele>
        <time>2014-06-04T04:37:55Z</time>
      </trkpt>
      <trkpt lat="44.32245" lon="2.64682">
        <ele>682.6733398</ele>
        <time>2014-06-04T04:38:01Z</time>
      </trkpt>
      <trkpt lat="44.32237" lon="2.64675">
        <ele>683.1538086</ele>
        <time>2014-06-04T04:38:05Z</time>
      </trkpt>
      <trkpt lat="44.32226" lon="2.64666">
        <ele>683.6345215</ele>
        <time>2014-06-04T04:38:11Z</time>
      </trkpt>
      <trkpt lat="44.32216" lon="2.6466">
        <ele>683.6345215</ele>
        <time>2014-06-04T04:38:16Z</time>
      </trkpt>
      <trkpt lat="44.32206" lon="2.64654">
        <ele>683.6345215</ele>
        <time>2014-06-04T04:38:21Z</time>
      </trkpt>
      <trkpt lat="44.32195" lon="2.64649">
        <ele>684.5961914</ele>
        <time>2014-06-04T04:38:27Z</time>
      </trkpt>
      <trkpt lat="44.32192" lon="2.64648">
        <ele>685.0769043</ele>
        <time>2014-06-04T04:38:28Z</time>
      </trkpt>
      <trkpt lat="44.32178" lon="2.64648">
        <ele>685.557373</ele>
        <time>2014-06-04T04:38:34Z</time>
      </trkpt>
      <trkpt lat="44.32164" lon="2.64647">
        <ele>686.0380859</ele>
        <time>2014-06-04T04:38:39Z</time>
      </trkpt>
      <trkpt lat="44.32149" lon="2.64645">
        <ele>686.9992676</ele>
        <time>2014-06-04T04:38:45Z</time>
      </trkpt>
      <trkpt lat="44.32135" lon="2.64645">
        <ele>687.9606934</ele>
        <time>2014-06-04T04:38:50Z</time>
      </trkpt>
      <trkpt lat="44.32118" lon="2.64642">
        <ele>687.4799805</ele>
        <time>2014-06-04T04:38:56Z</time>
      </trkpt>
      <trkpt lat="44.32104" lon="2.64638">
        <ele>686.5187988</ele>
        <time>2014-06-04T04:39:01Z</time>
      </trkpt>
      <trkpt lat="44.32089" lon="2.64634">
        <ele>684.1154785</ele>
        <time>2014-06-04T04:39:06Z</time>
      </trkpt>
      <trkpt lat="44.32075" lon="2.64631">
        <ele>682.192627</ele>
        <time>2014-06-04T04:39:11Z</time>
      </trkpt>
      <trkpt lat="44.32059" lon="2.64628">
        <ele>681.2314453</ele>
        <time>2014-06-04T04:39:16Z</time>
      </trkpt>
      <trkpt lat="44.32046" lon="2.64628">
        <ele>680.7507324</ele>
        <time>2014-06-04T04:39:20Z</time>
      </trkpt>
      <trkpt lat="44.32031" lon="2.64624">
        <ele>678.3474121</ele>
        <time>2014-06-04T04:39:25Z</time>
      </trkpt>
      <trkpt lat="44.32017" lon="2.64623">
        <ele>676.9055176</ele>
        <time>2014-06-04T04:39:30Z</time>
      </trkpt>
      <trkpt lat="44.32002" lon="2.64625">
        <ele>674.9829102</ele>
        <time>2014-06-04T04:39:35Z</time>
      </trkpt>
      <trkpt lat="44.31987" lon="2.6462">
        <ele>672.5795898</ele>
        <time>2014-06-04T04:39:40Z</time>
      </trkpt>
      <trkpt lat="44.31967" lon="2.64615">
        <ele>669.2150879</ele>
        <time>2014-06-04T04:39:47Z</time>
      </trkpt>
      <trkpt lat="44.31952" lon="2.64611">
        <ele>667.2922363</ele>
        <time>2014-06-04T04:39:52Z</time>
      </trkpt>
      <trkpt lat="44.3194" lon="2.6461">
        <ele>666.3308105</ele>
        <time>2014-06-04T04:39:56Z</time>
      </trkpt>
      <trkpt lat="44.31925" lon="2.64608">
        <ele>663.9274902</ele>
        <time>2014-06-04T04:40:01Z</time>
      </trkpt>
      <trkpt lat="44.31911" lon="2.6461">
        <ele>662.9663086</ele>
        <time>2014-06-04T04:40:06Z</time>
      </trkpt>
      <trkpt lat="44.31897" lon="2.64613">
        <ele>662.005127</ele>
        <time>2014-06-04T04:40:11Z</time>
      </trkpt>
      <trkpt lat="44.31882" lon="2.64614">
        <ele>661.5244141</ele>
        <time>2014-06-04T04:40:16Z</time>
      </trkpt>
      <trkpt lat="44.31869" lon="2.64611">
        <ele>660.0822754</ele>
        <time>2014-06-04T04:40:21Z</time>
      </trkpt>
      <trkpt lat="44.31855" lon="2.646">
        <ele>661.0437012</ele>
        <time>2014-06-04T04:40:27Z</time>
      </trkpt>
      <trkpt lat="44.31848" lon="2.6459">
        <ele>662.4855957</ele>
        <time>2014-06-04T04:40:31Z</time>
      </trkpt>
      <trkpt lat="44.31842" lon="2.64578">
        <ele>662.9663086</ele>
        <time>2014-06-04T04:40:35Z</time>
      </trkpt>
      <trkpt lat="44.31832" lon="2.64564">
        <ele>664.888916</ele>
        <time>2014-06-04T04:40:40Z</time>
      </trkpt>
      <trkpt lat="44.31821" lon="2.6455">
        <ele>665.3696289</ele>
        <time>2014-06-04T04:40:46Z</time>
      </trkpt>
      <trkpt lat="44.3181" lon="2.6454">
        <ele>665.8503418</ele>
        <time>2014-06-04T04:40:51Z</time>
      </trkpt>
      <trkpt lat="44.31799" lon="2.64531">
        <ele>664.4082031</ele>
        <time>2014-06-04T04:40:56Z</time>
      </trkpt>
      <trkpt lat="44.31789" lon="2.64525">
        <ele>663.9274902</ele>
        <time>2014-06-04T04:41:00Z</time>
      </trkpt>
      <trkpt lat="44.31779" lon="2.64521">
        <ele>662.4855957</ele>
        <time>2014-06-04T04:41:04Z</time>
      </trkpt>
      <trkpt lat="44.31777" lon="2.6452">
        <ele>662.4855957</ele>
        <time>2014-06-04T04:41:05Z</time>
      </trkpt>
      <trkpt lat="44.3177" lon="2.64519">
        <ele>662.005127</ele>
        <time>2014-06-04T04:41:11Z</time>
      </trkpt>
      <trkpt lat="44.31763" lon="2.64517">
        <ele>660.0822754</ele>
        <time>2014-06-04T04:41:16Z</time>
      </trkpt>
      <trkpt lat="44.31758" lon="2.64516">
        <ele>659.1210938</ele>
        <time>2014-06-04T04:41:18Z</time>
      </trkpt>
      <trkpt lat="44.31747" lon="2.64517">
        <ele>657.6791992</ele>
        <time>2014-06-04T04:41:22Z</time>
      </trkpt>
      <trkpt lat="44.31731" lon="2.64515">
        <ele>655.7565918</ele>
        <time>2014-06-04T04:41:28Z</time>
      </trkpt>
      <trkpt lat="44.31719" lon="2.64515">
        <ele>654.795166</ele>
        <time>2014-06-04T04:41:32Z</time>
      </trkpt>
      <trkpt lat="44.31708" lon="2.64514">
        <ele>652.8725586</ele>
        <time>2014-06-04T04:41:36Z</time>
      </trkpt>
      <trkpt lat="44.31694" lon="2.64514">
        <ele>650.4692383</ele>
        <time>2014-06-04T04:41:41Z</time>
      </trkpt>
      <trkpt lat="44.3168" lon="2.64512">
        <ele>648.5463867</ele>
        <time>2014-06-04T04:41:46Z</time>
      </trkpt>
      <trkpt lat="44.31666" lon="2.64507">
        <ele>647.1044922</ele>
        <time>2014-06-04T04:41:51Z</time>
      </trkpt>
      <trkpt lat="44.31663" lon="2.64506">
        <ele>646.6240234</ele>
        <time>2014-06-04T04:41:52Z</time>
      </trkpt>
      <trkpt lat="44.31653" lon="2.64493">
        <ele>646.1433105</ele>
        <time>2014-06-04T04:41:57Z</time>
      </trkpt>
      <trkpt lat="44.31646" lon="2.64485">
        <ele>644.7011719</ele>
        <time>2014-06-04T04:42:00Z</time>
      </trkpt>
      <trkpt lat="44.31634" lon="2.64482">
        <ele>642.7788086</ele>
        <time>2014-06-04T04:42:05Z</time>
      </trkpt>
      <trkpt lat="44.31623" lon="2.64498">
        <ele>641.8173828</ele>
        <time>2014-06-04T04:42:10Z</time>
      </trkpt>
      <trkpt lat="44.31616" lon="2.64513">
        <ele>640.855957</ele>
        <time>2014-06-04T04:42:14Z</time>
      </trkpt>
      <trkpt lat="44.3161" lon="2.64522">
        <ele>640.3754883</ele>
        <time>2014-06-04T04:42:17Z</time>
      </trkpt>
      <trkpt lat="44.31603" lon="2.64517">
        <ele>639.4140625</ele>
        <time>2014-06-04T04:42:21Z</time>
      </trkpt>
      <trkpt lat="44.31604" lon="2.64504">
        <ele>637.972168</ele>
        <time>2014-06-04T04:42:24Z</time>
      </trkpt>
      <trkpt lat="44.31605" lon="2.64482">
        <ele>634.6074219</ele>
        <time>2014-06-04T04:42:30Z</time>
      </trkpt>
      <trkpt lat="44.31604" lon="2.64461">
        <ele>633.1652832</ele>
        <time>2014-06-04T04:42:35Z</time>
      </trkpt>
      <trkpt lat="44.31603" lon="2.64439">
        <ele>632.6848145</ele>
        <time>2014-06-04T04:42:40Z</time>
      </trkpt>
      <trkpt lat="44.31606" lon="2.6442">
        <ele>633.1652832</ele>
        <time>2014-06-04T04:42:44Z</time>
      </trkpt>
      <trkpt lat="44.31611" lon="2.64396">
        <ele>633.6459961</ele>
        <time>2014-06-04T04:42:49Z</time>
      </trkpt>
      <trkpt lat="44.31611" lon="2.64392">
        <ele>633.1652832</ele>
        <time>2014-06-04T04:42:50Z</time>
      </trkpt>
      <trkpt lat="44.31618" lon="2.6437">
        <ele>633.1652832</ele>
        <time>2014-06-04T04:42:55Z</time>
      </trkpt>
      <trkpt lat="44.31624" lon="2.64353">
        <ele>632.2041016</ele>
        <time>2014-06-04T04:42:58Z</time>
      </trkpt>
      <trkpt lat="44.31627" lon="2.64334">
        <ele>630.762207</ele>
        <time>2014-06-04T04:43:02Z</time>
      </trkpt>
      <trkpt lat="44.31619" lon="2.64316">
        <ele>630.2814941</ele>
        <time>2014-06-04T04:43:06Z</time>
      </trkpt>
      <trkpt lat="44.3161" lon="2.64297">
        <ele>632.2041016</ele>
        <time>2014-06-04T04:43:11Z</time>
      </trkpt>
      <trkpt lat="44.31605" lon="2.64279">
        <ele>631.2429199</ele>
        <time>2014-06-04T04:43:15Z</time>
      </trkpt>
      <trkpt lat="44.31596" lon="2.64255">
        <ele>630.2814941</ele>
        <time>2014-06-04T04:43:20Z</time>
      </trkpt>
      <trkpt lat="44.3159" lon="2.64228">
        <ele>628.3588867</ele>
        <time>2014-06-04T04:43:25Z</time>
      </trkpt>
      <trkpt lat="44.31581" lon="2.64211">
        <ele>628.3588867</ele>
        <time>2014-06-04T04:43:29Z</time>
      </trkpt>
      <trkpt lat="44.31566" lon="2.64191">
        <ele>629.8007813</ele>
        <time>2014-06-04T04:43:35Z</time>
      </trkpt>
      <trkpt lat="44.31556" lon="2.6417">
        <ele>629.8007813</ele>
        <time>2014-06-04T04:43:40Z</time>
      </trkpt>
      <trkpt lat="44.31546" lon="2.64154">
        <ele>629.3200684</ele>
        <time>2014-06-04T04:43:44Z</time>
      </trkpt>
      <trkpt lat="44.31536" lon="2.64139">
        <ele>629.8007813</ele>
        <time>2014-06-04T04:43:48Z</time>
      </trkpt>
      <trkpt lat="44.31529" lon="2.64121">
        <ele>630.2814941</ele>
        <time>2014-06-04T04:43:52Z</time>
      </trkpt>
      <trkpt lat="44.31526" lon="2.64101">
        <ele>628.8395996</ele>
        <time>2014-06-04T04:43:56Z</time>
      </trkpt>
      <trkpt lat="44.31524" lon="2.64081">
        <ele>626.9169922</ele>
        <time>2014-06-04T04:44:01Z</time>
      </trkpt>
      <trkpt lat="44.31524" lon="2.64066">
        <ele>624.5136719</ele>
        <time>2014-06-04T04:44:05Z</time>
      </trkpt>
      <trkpt lat="44.31521" lon="2.64049">
        <ele>622.5910645</ele>
        <time>2014-06-04T04:44:09Z</time>
      </trkpt>
      <trkpt lat="44.31514" lon="2.64032">
        <ele>621.6296387</ele>
        <time>2014-06-04T04:44:13Z</time>
      </trkpt>
      <trkpt lat="44.31502" lon="2.64019">
        <ele>622.5910645</ele>
        <time>2014-06-04T04:44:18Z</time>
      </trkpt>
      <trkpt lat="44.31489" lon="2.64006">
        <ele>619.7070313</ele>
        <time>2014-06-04T04:44:23Z</time>
      </trkpt>
      <trkpt lat="44.3147" lon="2.63988">
        <ele>622.1103516</ele>
        <time>2014-06-04T04:44:29Z</time>
      </trkpt>
      <trkpt lat="44.31459" lon="2.63975">
        <ele>622.5910645</ele>
        <time>2014-06-04T04:44:34Z</time>
      </trkpt>
      <trkpt lat="44.31448" lon="2.63959">
        <ele>623.5524902</ele>
        <time>2014-06-04T04:44:39Z</time>
      </trkpt>
      <trkpt lat="44.31437" lon="2.63941">
        <ele>622.5910645</ele>
        <time>2014-06-04T04:44:44Z</time>
      </trkpt>
      <trkpt lat="44.3143" lon="2.63925">
        <ele>623.0717773</ele>
        <time>2014-06-04T04:44:48Z</time>
      </trkpt>
      <trkpt lat="44.31419" lon="2.63903">
        <ele>620.1877441</ele>
        <time>2014-06-04T04:44:54Z</time>
      </trkpt>
      <trkpt lat="44.31412" lon="2.63884">
        <ele>618.2648926</ele>
        <time>2014-06-04T04:44:59Z</time>
      </trkpt>
      <trkpt lat="44.31406" lon="2.63865">
        <ele>619.7070313</ele>
        <time>2014-06-04T04:45:04Z</time>
      </trkpt>
      <trkpt lat="44.314" lon="2.63847">
        <ele>620.668457</ele>
        <time>2014-06-04T04:45:09Z</time>
      </trkpt>
      <trkpt lat="44.31394" lon="2.63832">
        <ele>626.4362793</ele>
        <time>2014-06-04T04:45:13Z</time>
      </trkpt>
      <trkpt lat="44.31392" lon="2.63817">
        <ele>628.3588867</ele>
        <time>2014-06-04T04:45:17Z</time>
      </trkpt>
      <trkpt lat="44.31392" lon="2.63798">
        <ele>628.8395996</ele>
        <time>2014-06-04T04:45:22Z</time>
      </trkpt>
      <trkpt lat="44.31394" lon="2.63778">
        <ele>628.8395996</ele>
        <time>2014-06-04T04:45:27Z</time>
      </trkpt>
      <trkpt lat="44.31399" lon="2.63763">
        <ele>628.3588867</ele>
        <time>2014-06-04T04:45:32Z</time>
      </trkpt>
      <trkpt lat="44.31406" lon="2.63744">
        <ele>624.9943848</ele>
        <time>2014-06-04T04:45:38Z</time>
      </trkpt>
      <trkpt lat="44.31408" lon="2.63741">
        <ele>624.9943848</ele>
        <time>2014-06-04T04:45:39Z</time>
      </trkpt>
      <trkpt lat="44.31413" lon="2.63729">
        <ele>624.032959</ele>
        <time>2014-06-04T04:45:43Z</time>
      </trkpt>
      <trkpt lat="44.31422" lon="2.63711">
        <ele>622.5910645</ele>
        <time>2014-06-04T04:45:49Z</time>
      </trkpt>
      <trkpt lat="44.31427" lon="2.6369">
        <ele>623.0717773</ele>
        <time>2014-06-04T04:45:54Z</time>
      </trkpt>
      <trkpt lat="44.31427" lon="2.63684">
        <ele>623.5524902</ele>
        <time>2014-06-04T04:45:56Z</time>
      </trkpt>
      <trkpt lat="44.3142" lon="2.6367">
        <ele>626.9169922</ele>
        <time>2014-06-04T04:46:01Z</time>
      </trkpt>
      <trkpt lat="44.3141" lon="2.63652">
        <ele>629.8007813</ele>
        <time>2014-06-04T04:46:06Z</time>
      </trkpt>
      <trkpt lat="44.31403" lon="2.63636">
        <ele>633.1652832</ele>
        <time>2014-06-04T04:46:11Z</time>
      </trkpt>
      <trkpt lat="44.31402" lon="2.6363">
        <ele>633.6459961</ele>
        <time>2014-06-04T04:46:13Z</time>
      </trkpt>
      <trkpt lat="44.31405" lon="2.6361">
        <ele>636.0495605</ele>
        <time>2014-06-04T04:46:19Z</time>
      </trkpt>
      <trkpt lat="44.31405" lon="2.63593">
        <ele>637.972168</ele>
        <time>2014-06-04T04:46:24Z</time>
      </trkpt>
      <trkpt lat="44.31403" lon="2.63577">
        <ele>638.9335938</ele>
        <time>2014-06-04T04:46:28Z</time>
      </trkpt>
      <trkpt lat="44.31402" lon="2.63556">
        <ele>637.972168</ele>
        <time>2014-06-04T04:46:34Z</time>
      </trkpt>
      <trkpt lat="44.31401" lon="2.63537">
        <ele>638.9335938</ele>
        <time>2014-06-04T04:46:39Z</time>
      </trkpt>
      <trkpt lat="44.31401" lon="2.63527">
        <ele>640.3754883</ele>
        <time>2014-06-04T04:46:45Z</time>
      </trkpt>
      <trkpt lat="44.31399" lon="2.63515">
        <ele>644.7011719</ele>
        <time>2014-06-04T04:46:52Z</time>
      </trkpt>
      <trkpt lat="44.31399" lon="2.63501">
        <ele>646.6240234</ele>
        <time>2014-06-04T04:47:00Z</time>
      </trkpt>
      <trkpt lat="44.31398" lon="2.63495">
        <ele>647.1044922</ele>
        <time>2014-06-04T04:47:03Z</time>
      </trkpt>
      <trkpt lat="44.31396" lon="2.63484">
        <ele>648.065918</ele>
        <time>2014-06-04T04:47:07Z</time>
      </trkpt>
      <trkpt lat="44.3139" lon="2.6347">
        <ele>649.9885254</ele>
        <time>2014-06-04T04:47:13Z</time>
      </trkpt>
      <trkpt lat="44.3138" lon="2.63451">
        <ele>650.4692383</ele>
        <time>2014-06-04T04:47:20Z</time>
      </trkpt>
      <trkpt lat="44.31367" lon="2.63433">
        <ele>650.949707</ele>
        <time>2014-06-04T04:47:27Z</time>
      </trkpt>
      <trkpt lat="44.31356" lon="2.63419">
        <ele>650.949707</ele>
        <time>2014-06-04T04:47:33Z</time>
      </trkpt>
      <trkpt lat="44.31347" lon="2.63402">
        <ele>651.4304199</ele>
        <time>2014-06-04T04:47:39Z</time>
      </trkpt>
      <trkpt lat="44.31343" lon="2.6338">
        <ele>651.4304199</ele>
        <time>2014-06-04T04:47:45Z</time>
      </trkpt>
      <trkpt lat="44.31343" lon="2.63361">
        <ele>650.4692383</ele>
        <time>2014-06-04T04:47:50Z</time>
      </trkpt>
      <trkpt lat="44.31344" lon="2.63351">
        <ele>649.9885254</ele>
        <time>2014-06-04T04:47:53Z</time>
      </trkpt>
      <trkpt lat="44.31343" lon="2.63333">
        <ele>648.065918</ele>
        <time>2014-06-04T04:47:58Z</time>
      </trkpt>
      <trkpt lat="44.31344" lon="2.63315">
        <ele>647.1044922</ele>
        <time>2014-06-04T04:48:03Z</time>
      </trkpt>
      <trkpt lat="44.31349" lon="2.63292">
        <ele>645.1818848</ele>
        <time>2014-06-04T04:48:09Z</time>
      </trkpt>
      <trkpt lat="44.31356" lon="2.63276">
        <ele>644.7011719</ele>
        <time>2014-06-04T04:48:14Z</time>
      </trkpt>
      <trkpt lat="44.31364" lon="2.63259">
        <ele>642.2980957</ele>
        <time>2014-06-04T04:48:19Z</time>
      </trkpt>
      <trkpt lat="44.31371" lon="2.63241">
        <ele>641.3366699</ele>
        <time>2014-06-04T04:48:25Z</time>
      </trkpt>
      <trkpt lat="44.31375" lon="2.63222">
        <ele>638.4528809</ele>
        <time>2014-06-04T04:48:30Z</time>
      </trkpt>
      <trkpt lat="44.31379" lon="2.63211">
        <ele>637.0107422</ele>
        <time>2014-06-04T04:48:33Z</time>
      </trkpt>
      <trkpt lat="44.3139" lon="2.63204">
        <ele>635.0881348</ele>
        <time>2014-06-04T04:48:37Z</time>
      </trkpt>
      <trkpt lat="44.31404" lon="2.63207">
        <ele>633.1652832</ele>
        <time>2014-06-04T04:48:42Z</time>
      </trkpt>
      <trkpt lat="44.31417" lon="2.63216">
        <ele>631.2429199</ele>
        <time>2014-06-04T04:48:47Z</time>
      </trkpt>
      <trkpt lat="44.31429" lon="2.63228">
        <ele>629.8007813</ele>
        <time>2014-06-04T04:48:52Z</time>
      </trkpt>
      <trkpt lat="44.3144" lon="2.63238">
        <ele>627.8781738</ele>
        <time>2014-06-04T04:48:57Z</time>
      </trkpt>
      <trkpt lat="44.31451" lon="2.63244">
        <ele>627.3977051</ele>
        <time>2014-06-04T04:49:01Z</time>
      </trkpt>
      <trkpt lat="44.31462" lon="2.63239">
        <ele>624.9943848</ele>
        <time>2014-06-04T04:49:05Z</time>
      </trkpt>
      <trkpt lat="44.3147" lon="2.6323">
        <ele>624.5136719</ele>
        <time>2014-06-04T04:49:09Z</time>
      </trkpt>
      <trkpt lat="44.31481" lon="2.63209">
        <ele>621.6296387</ele>
        <time>2014-06-04T04:49:17Z</time>
      </trkpt>
      <trkpt lat="44.31484" lon="2.63197">
        <ele>621.6296387</ele>
        <time>2014-06-04T04:49:21Z</time>
      </trkpt>
      <trkpt lat="44.31485" lon="2.63194">
        <ele>621.1491699</ele>
        <time>2014-06-04T04:49:22Z</time>
      </trkpt>
      <trkpt lat="44.31493" lon="2.63191">
        <ele>626.4362793</ele>
        <time>2014-06-04T04:49:27Z</time>
      </trkpt>
      <trkpt lat="44.31503" lon="2.63193">
        <ele>627.8781738</ele>
        <time>2014-06-04T04:49:32Z</time>
      </trkpt>
      <trkpt lat="44.31513" lon="2.63197">
        <ele>630.762207</ele>
        <time>2014-06-04T04:49:38Z</time>
      </trkpt>
      <trkpt lat="44.31519" lon="2.63199">
        <ele>632.6848145</ele>
        <time>2014-06-04T04:49:41Z</time>
      </trkpt>
      <trkpt lat="44.31528" lon="2.63205">
        <ele>635.0881348</ele>
        <time>2014-06-04T04:49:46Z</time>
      </trkpt>
      <trkpt lat="44.31536" lon="2.63211">
        <ele>636.0495605</ele>
        <time>2014-06-04T04:49:51Z</time>
      </trkpt>
      <trkpt lat="44.31539" lon="2.63215">
        <ele>636.5302734</ele>
        <time>2014-06-04T04:49:53Z</time>
      </trkpt>
      <trkpt lat="44.31553" lon="2.63222">
        <ele>637.0107422</ele>
        <time>2014-06-04T04:50:00Z</time>
      </trkpt>
      <trkpt lat="44.31565" lon="2.63227">
        <ele>637.0107422</ele>
        <time>2014-06-04T04:50:06Z</time>
      </trkpt>
      <trkpt lat="44.31576" lon="2.63231">
        <ele>637.4914551</ele>
        <time>2014-06-04T04:50:11Z</time>
      </trkpt>
      <trkpt lat="44.31586" lon="2.63236">
        <ele>637.972168</ele>
        <time>2014-06-04T04:50:16Z</time>
      </trkpt>
      <trkpt lat="44.31595" lon="2.63241">
        <ele>638.9335938</ele>
        <time>2014-06-04T04:50:21Z</time>
      </trkpt>
      <trkpt lat="44.31604" lon="2.63243">
        <ele>640.3754883</ele>
        <time>2014-06-04T04:50:25Z</time>
      </trkpt>
      <trkpt lat="44.31609" lon="2.63248">
        <ele>641.3366699</ele>
        <time>2014-06-04T04:50:29Z</time>
      </trkpt>
      <trkpt lat="44.31615" lon="2.63254">
        <ele>642.2980957</ele>
        <time>2014-06-04T04:50:34Z</time>
      </trkpt>
      <trkpt lat="44.31623" lon="2.63261">
        <ele>645.1818848</ele>
        <time>2014-06-04T04:50:39Z</time>
      </trkpt>
      <trkpt lat="44.31628" lon="2.63266">
        <ele>647.1044922</ele>
        <time>2014-06-04T04:50:43Z</time>
      </trkpt>
      <trkpt lat="44.31636" lon="2.6327">
        <ele>648.5463867</ele>
        <time>2014-06-04T04:50:47Z</time>
      </trkpt>
      <trkpt lat="44.3165" lon="2.63274">
        <ele>651.4304199</ele>
        <time>2014-06-04T04:50:53Z</time>
      </trkpt>
      <trkpt lat="44.31664" lon="2.63275">
        <ele>655.2758789</ele>
        <time>2014-06-04T04:50:59Z</time>
      </trkpt>
      <trkpt lat="44.31671" lon="2.63274">
        <ele>657.1984863</ele>
        <time>2014-06-04T04:51:02Z</time>
      </trkpt>
      <trkpt lat="44.31688" lon="2.63273">
        <ele>661.5244141</ele>
        <time>2014-06-04T04:51:09Z</time>
      </trkpt>
      <trkpt lat="44.31694" lon="2.63273">
        <ele>661.5244141</ele>
        <time>2014-06-04T04:51:12Z</time>
      </trkpt>
      <trkpt lat="44.31702" lon="2.63275">
        <ele>662.4855957</ele>
        <time>2014-06-04T04:51:16Z</time>
      </trkpt>
      <trkpt lat="44.31712" lon="2.63274">
        <ele>662.9663086</ele>
        <time>2014-06-04T04:51:21Z</time>
      </trkpt>
      <trkpt lat="44.31728" lon="2.63277">
        <ele>663.9274902</ele>
        <time>2014-06-04T04:51:28Z</time>
      </trkpt>
      <trkpt lat="44.31741" lon="2.63278">
        <ele>665.8503418</ele>
        <time>2014-06-04T04:51:34Z</time>
      </trkpt>
      <trkpt lat="44.31751" lon="2.6328">
        <ele>667.2922363</ele>
        <time>2014-06-04T04:51:39Z</time>
      </trkpt>
      <trkpt lat="44.31761" lon="2.63281">
        <ele>668.734375</ele>
        <time>2014-06-04T04:51:44Z</time>
      </trkpt>
      <trkpt lat="44.31775" lon="2.63284">
        <ele>668.734375</ele>
        <time>2014-06-04T04:51:51Z</time>
      </trkpt>
      <trkpt lat="44.31785" lon="2.63287">
        <ele>668.2536621</ele>
        <time>2014-06-04T04:51:56Z</time>
      </trkpt>
      <trkpt lat="44.31797" lon="2.6329">
        <ele>670.1762695</ele>
        <time>2014-06-04T04:52:01Z</time>
      </trkpt>
      <trkpt lat="44.318" lon="2.6329">
        <ele>670.1762695</ele>
        <time>2014-06-04T04:52:02Z</time>
      </trkpt>
      <trkpt lat="44.31809" lon="2.63288">
        <ele>670.6569824</ele>
        <time>2014-06-04T04:52:07Z</time>
      </trkpt>
      <trkpt lat="44.31823" lon="2.63283">
        <ele>671.1376953</ele>
        <time>2014-06-04T04:52:13Z</time>
      </trkpt>
      <trkpt lat="44.31833" lon="2.63276">
        <ele>672.5795898</ele>
        <time>2014-06-04T04:52:18Z</time>
      </trkpt>
      <trkpt lat="44.31841" lon="2.63264">
        <ele>672.098877</ele>
        <time>2014-06-04T04:52:23Z</time>
      </trkpt>
      <trkpt lat="44.31851" lon="2.6325">
        <ele>670.1762695</ele>
        <time>2014-06-04T04:52:29Z</time>
      </trkpt>
      <trkpt lat="44.31856" lon="2.63238">
        <ele>668.734375</ele>
        <time>2014-06-04T04:52:33Z</time>
      </trkpt>
      <trkpt lat="44.31862" lon="2.63224">
        <ele>668.2536621</ele>
        <time>2014-06-04T04:52:38Z</time>
      </trkpt>
      <trkpt lat="44.31868" lon="2.6321">
        <ele>669.6958008</ele>
        <time>2014-06-04T04:52:43Z</time>
      </trkpt>
      <trkpt lat="44.31872" lon="2.632">
        <ele>671.1376953</ele>
        <time>2014-06-04T04:52:47Z</time>
      </trkpt>
      <trkpt lat="44.31883" lon="2.63188">
        <ele>672.098877</ele>
        <time>2014-06-04T04:52:53Z</time>
      </trkpt>
      <trkpt lat="44.31891" lon="2.63177">
        <ele>673.0603027</ele>
        <time>2014-06-04T04:52:58Z</time>
      </trkpt>
      <trkpt lat="44.31893" lon="2.63175">
        <ele>672.5795898</ele>
        <time>2014-06-04T04:52:59Z</time>
      </trkpt>
      <trkpt lat="44.31902" lon="2.63161">
        <ele>671.6181641</ele>
        <time>2014-06-04T04:53:05Z</time>
      </trkpt>
      <trkpt lat="44.3191" lon="2.6315">
        <ele>671.1376953</ele>
        <time>2014-06-04T04:53:10Z</time>
      </trkpt>
      <trkpt lat="44.31913" lon="2.63145">
        <ele>669.6958008</ele>
        <time>2014-06-04T04:53:14Z</time>
      </trkpt>
      <trkpt lat="44.31919" lon="2.63135">
        <ele>668.2536621</ele>
        <time>2014-06-04T04:53:20Z</time>
      </trkpt>
      <trkpt lat="44.31927" lon="2.63123">
        <ele>667.2922363</ele>
        <time>2014-06-04T04:53:26Z</time>
      </trkpt>
      <trkpt lat="44.31929" lon="2.63119">
        <ele>667.2922363</ele>
        <time>2014-06-04T04:53:28Z</time>
      </trkpt>
      <trkpt lat="44.3194" lon="2.63106">
        <ele>665.8503418</ele>
        <time>2014-06-04T04:53:34Z</time>
      </trkpt>
      <trkpt lat="44.31942" lon="2.63104">
        <ele>666.3308105</ele>
        <time>2014-06-04T04:53:35Z</time>
      </trkpt>
      <trkpt lat="44.31952" lon="2.63092">
        <ele>664.888916</ele>
        <time>2014-06-04T04:53:40Z</time>
      </trkpt>
      <trkpt lat="44.31962" lon="2.63083">
        <ele>662.005127</ele>
        <time>2014-06-04T04:53:45Z</time>
      </trkpt>
      <trkpt lat="44.31973" lon="2.63071">
        <ele>659.1210938</ele>
        <time>2014-06-04T04:53:50Z</time>
      </trkpt>
      <trkpt lat="44.31985" lon="2.63059">
        <ele>658.1599121</ele>
        <time>2014-06-04T04:53:55Z</time>
      </trkpt>
      <trkpt lat="44.31997" lon="2.63048">
        <ele>656.7177734</ele>
        <time>2014-06-04T04:54:00Z</time>
      </trkpt>
      <trkpt lat="44.31998" lon="2.63045">
        <ele>658.1599121</ele>
        <time>2014-06-04T04:54:01Z</time>
      </trkpt>
      <trkpt lat="44.32007" lon="2.63029">
        <ele>655.2758789</ele>
        <time>2014-06-04T04:54:07Z</time>
      </trkpt>
      <trkpt lat="44.32016" lon="2.63023">
        <ele>654.3146973</ele>
        <time>2014-06-04T04:54:11Z</time>
      </trkpt>
      <trkpt lat="44.32026" lon="2.63013">
        <ele>652.8725586</ele>
        <time>2014-06-04T04:54:15Z</time>
      </trkpt>
      <trkpt lat="44.32036" lon="2.63003">
        <ele>650.949707</ele>
        <time>2014-06-04T04:54:19Z</time>
      </trkpt>
      <trkpt lat="44.32046" lon="2.62992">
        <ele>647.5852051</ele>
        <time>2014-06-04T04:54:23Z</time>
      </trkpt>
      <trkpt lat="44.32059" lon="2.62977">
        <ele>642.2980957</ele>
        <time>2014-06-04T04:54:28Z</time>
      </trkpt>
      <trkpt lat="44.32065" lon="2.62973">
        <ele>641.3366699</ele>
        <time>2014-06-04T04:54:30Z</time>
      </trkpt>
      <trkpt lat="44.3208" lon="2.62954">
        <ele>637.972168</ele>
        <time>2014-06-04T04:54:36Z</time>
      </trkpt>
      <trkpt lat="44.32092" lon="2.62943">
        <ele>634.126709</ele>
        <time>2014-06-04T04:54:40Z</time>
      </trkpt>
      <trkpt lat="44.32103" lon="2.62936">
        <ele>631.7233887</ele>
        <time>2014-06-04T04:54:44Z</time>
      </trkpt>
      <trkpt lat="44.32114" lon="2.62922">
        <ele>630.762207</ele>
        <time>2014-06-04T04:54:49Z</time>
      </trkpt>
      <trkpt lat="44.32125" lon="2.62908">
        <ele>633.1652832</ele>
        <time>2014-06-04T04:54:54Z</time>
      </trkpt>
      <trkpt lat="44.32136" lon="2.62892">
        <ele>633.1652832</ele>
        <time>2014-06-04T04:54:59Z</time>
      </trkpt>
      <trkpt lat="44.32145" lon="2.6288">
        <ele>633.6459961</ele>
        <time>2014-06-04T04:55:03Z</time>
      </trkpt>
      <trkpt lat="44.32154" lon="2.6286">
        <ele>634.6074219</ele>
        <time>2014-06-04T04:55:08Z</time>
      </trkpt>
      <trkpt lat="44.32159" lon="2.6285">
        <ele>636.0495605</ele>
        <time>2014-06-04T04:55:11Z</time>
      </trkpt>
      <trkpt lat="44.32165" lon="2.62831">
        <ele>637.4914551</ele>
        <time>2014-06-04T04:55:16Z</time>
      </trkpt>
      <trkpt lat="44.32171" lon="2.62805">
        <ele>637.0107422</ele>
        <time>2014-06-04T04:55:22Z</time>
      </trkpt>
      <trkpt lat="44.32174" lon="2.62787">
        <ele>637.4914551</ele>
        <time>2014-06-04T04:55:26Z</time>
      </trkpt>
      <trkpt lat="44.32172" lon="2.62771">
        <ele>638.4528809</ele>
        <time>2014-06-04T04:55:29Z</time>
      </trkpt>
      <trkpt lat="44.32174" lon="2.62758">
        <ele>639.8947754</ele>
        <time>2014-06-04T04:55:32Z</time>
      </trkpt>
      <trkpt lat="44.32179" lon="2.62732">
        <ele>640.855957</ele>
        <time>2014-06-04T04:55:38Z</time>
      </trkpt>
      <trkpt lat="44.32186" lon="2.62712">
        <ele>639.8947754</ele>
        <time>2014-06-04T04:55:43Z</time>
      </trkpt>
      <trkpt lat="44.32193" lon="2.62703">
        <ele>637.972168</ele>
        <time>2014-06-04T04:55:47Z</time>
      </trkpt>
      <trkpt lat="44.32199" lon="2.62694">
        <ele>637.4914551</ele>
        <time>2014-06-04T04:55:53Z</time>
      </trkpt>
      <trkpt lat="44.32209" lon="2.62685">
        <ele>635.0881348</ele>
        <time>2014-06-04T04:55:58Z</time>
      </trkpt>
      <trkpt lat="44.32209" lon="2.62676">
        <ele>633.1652832</ele>
        <time>2014-06-04T04:56:02Z</time>
      </trkpt>
      <trkpt lat="44.32204" lon="2.62663">
        <ele>632.6848145</ele>
        <time>2014-06-04T04:56:06Z</time>
      </trkpt>
      <trkpt lat="44.32203" lon="2.6265">
        <ele>633.1652832</ele>
        <time>2014-06-04T04:56:09Z</time>
      </trkpt>
      <trkpt lat="44.3221" lon="2.62631">
        <ele>633.6459961</ele>
        <time>2014-06-04T04:56:15Z</time>
      </trkpt>
      <trkpt lat="44.32218" lon="2.62612">
        <ele>633.1652832</ele>
        <time>2014-06-04T04:56:21Z</time>
      </trkpt>
      <trkpt lat="44.32226" lon="2.62598">
        <ele>633.1652832</ele>
        <time>2014-06-04T04:56:26Z</time>
      </trkpt>
      <trkpt lat="44.32235" lon="2.62592">
        <ele>634.126709</ele>
        <time>2014-06-04T04:56:30Z</time>
      </trkpt>
      <trkpt lat="44.32248" lon="2.62595">
        <ele>635.5686035</ele>
        <time>2014-06-04T04:56:35Z</time>
      </trkpt>
      <trkpt lat="44.32252" lon="2.62599">
        <ele>637.4914551</ele>
        <time>2014-06-04T04:56:37Z</time>
      </trkpt>
      <trkpt lat="44.32262" lon="2.6261">
        <ele>638.9335938</ele>
        <time>2014-06-04T04:56:42Z</time>
      </trkpt>
      <trkpt lat="44.32271" lon="2.62619">
        <ele>639.8947754</ele>
        <time>2014-06-04T04:56:47Z</time>
      </trkpt>
      <trkpt lat="44.32275" lon="2.62622">
        <ele>640.855957</ele>
        <time>2014-06-04T04:56:49Z</time>
      </trkpt>
      <trkpt lat="44.32282" lon="2.6263">
        <ele>643.2592773</ele>
        <time>2014-06-04T04:56:53Z</time>
      </trkpt>
      <trkpt lat="44.32291" lon="2.62642">
        <ele>644.2207031</ele>
        <time>2014-06-04T04:56:59Z</time>
      </trkpt>
      <trkpt lat="44.32294" lon="2.62647">
        <ele>644.7011719</ele>
        <time>2014-06-04T04:57:01Z</time>
      </trkpt>
      <trkpt lat="44.32301" lon="2.62665">
        <ele>643.7399902</ele>
        <time>2014-06-04T04:57:07Z</time>
      </trkpt>
      <trkpt lat="44.32305" lon="2.6268">
        <ele>645.1818848</ele>
        <time>2014-06-04T04:57:12Z</time>
      </trkpt>
      <trkpt lat="44.32306" lon="2.62692">
        <ele>647.1044922</ele>
        <time>2014-06-04T04:57:16Z</time>
      </trkpt>
      <trkpt lat="44.32311" lon="2.62697">
        <ele>648.065918</ele>
        <time>2014-06-04T04:57:20Z</time>
      </trkpt>
      <trkpt lat="44.32315" lon="2.62694">
        <ele>648.5463867</ele>
        <time>2014-06-04T04:57:22Z</time>
      </trkpt>
      <trkpt lat="44.32324" lon="2.62678">
        <ele>651.4304199</ele>
        <time>2014-06-04T04:57:28Z</time>
      </trkpt>
      <trkpt lat="44.32331" lon="2.62663">
        <ele>652.3918457</ele>
        <time>2014-06-04T04:57:33Z</time>
      </trkpt>
      <trkpt lat="44.32336" lon="2.62647">
        <ele>653.3532715</ele>
        <time>2014-06-04T04:57:38Z</time>
      </trkpt>
      <trkpt lat="44.32341" lon="2.62636">
        <ele>654.795166</ele>
        <time>2014-06-04T04:57:42Z</time>
      </trkpt>
      <trkpt lat="44.32348" lon="2.62623">
        <ele>656.2370605</ele>
        <time>2014-06-04T04:57:47Z</time>
      </trkpt>
      <trkpt lat="44.32352" lon="2.6261">
        <ele>656.2370605</ele>
        <time>2014-06-04T04:57:51Z</time>
      </trkpt>
      <trkpt lat="44.32359" lon="2.62595">
        <ele>657.1984863</ele>
        <time>2014-06-04T04:57:56Z</time>
      </trkpt>
      <trkpt lat="44.32363" lon="2.6259">
        <ele>656.2370605</ele>
        <time>2014-06-04T04:57:58Z</time>
      </trkpt>
      <trkpt lat="44.3237" lon="2.62571">
        <ele>654.795166</ele>
        <time>2014-06-04T04:58:04Z</time>
      </trkpt>
      <trkpt lat="44.32374" lon="2.62557">
        <ele>652.8725586</ele>
        <time>2014-06-04T04:58:08Z</time>
      </trkpt>
      <trkpt lat="44.32383" lon="2.62548">
        <ele>653.3532715</ele>
        <time>2014-06-04T04:58:13Z</time>
      </trkpt>
      <trkpt lat="44.32388" lon="2.62538">
        <ele>652.3918457</ele>
        <time>2014-06-04T04:58:17Z</time>
      </trkpt>
      <trkpt lat="44.32399" lon="2.62517">
        <ele>649.0270996</ele>
        <time>2014-06-04T04:58:24Z</time>
      </trkpt>
      <trkpt lat="44.32403" lon="2.62504">
        <ele>646.6240234</ele>
        <time>2014-06-04T04:58:28Z</time>
      </trkpt>
      <trkpt lat="44.32411" lon="2.62495">
        <ele>643.7399902</ele>
        <time>2014-06-04T04:58:32Z</time>
      </trkpt>
      <trkpt lat="44.32422" lon="2.62472">
        <ele>637.0107422</ele>
        <time>2014-06-04T04:58:39Z</time>
      </trkpt>
      <trkpt lat="44.32429" lon="2.62457">
        <ele>632.6848145</ele>
        <time>2014-06-04T04:58:44Z</time>
      </trkpt>
      <trkpt lat="44.32437" lon="2.62443">
        <ele>631.7233887</ele>
        <time>2014-06-04T04:58:49Z</time>
      </trkpt>
      <trkpt lat="44.32445" lon="2.62423">
        <ele>631.7233887</ele>
        <time>2014-06-04T04:58:55Z</time>
      </trkpt>
      <trkpt lat="44.32449" lon="2.62412">
        <ele>631.7233887</ele>
        <time>2014-06-04T04:58:59Z</time>
      </trkpt>
      <trkpt lat="44.32457" lon="2.62393">
        <ele>633.6459961</ele>
        <time>2014-06-04T04:59:05Z</time>
      </trkpt>
      <trkpt lat="44.32461" lon="2.62381">
        <ele>634.6074219</ele>
        <time>2014-06-04T04:59:09Z</time>
      </trkpt>
      <trkpt lat="44.32467" lon="2.62367">
        <ele>638.4528809</ele>
        <time>2014-06-04T04:59:14Z</time>
      </trkpt>
      <trkpt lat="44.32471" lon="2.62349">
        <ele>641.3366699</ele>
        <time>2014-06-04T04:59:19Z</time>
      </trkpt>
      <trkpt lat="44.32476" lon="2.62336">
        <ele>643.7399902</ele>
        <time>2014-06-04T04:59:23Z</time>
      </trkpt>
      <trkpt lat="44.32479" lon="2.62325">
        <ele>644.7011719</ele>
        <time>2014-06-04T04:59:26Z</time>
      </trkpt>
      <trkpt lat="44.32485" lon="2.62309">
        <ele>647.1044922</ele>
        <time>2014-06-04T04:59:31Z</time>
      </trkpt>
      <trkpt lat="44.32491" lon="2.62289">
        <ele>649.5078125</ele>
        <time>2014-06-04T04:59:37Z</time>
      </trkpt>
      <trkpt lat="44.32497" lon="2.62271">
        <ele>653.3532715</ele>
        <time>2014-06-04T04:59:43Z</time>
      </trkpt>
      <trkpt lat="44.32503" lon="2.6225">
        <ele>658.6403809</ele>
        <time>2014-06-04T04:59:50Z</time>
      </trkpt>
      <trkpt lat="44.32507" lon="2.62233">
        <ele>662.005127</ele>
        <time>2014-06-04T04:59:55Z</time>
      </trkpt>
      <trkpt lat="44.32514" lon="2.62214">
        <ele>664.4082031</ele>
        <time>2014-06-04T05:00:01Z</time>
      </trkpt>
      <trkpt lat="44.3252" lon="2.62199">
        <ele>665.8503418</ele>
        <time>2014-06-04T05:00:06Z</time>
      </trkpt>
      <trkpt lat="44.32526" lon="2.62182">
        <ele>667.2922363</ele>
        <time>2014-06-04T05:00:11Z</time>
      </trkpt>
      <trkpt lat="44.32532" lon="2.6217">
        <ele>666.8115234</ele>
        <time>2014-06-04T05:00:15Z</time>
      </trkpt>
      <trkpt lat="44.32537" lon="2.62159">
        <ele>666.8115234</ele>
        <time>2014-06-04T05:00:19Z</time>
      </trkpt>
      <trkpt lat="44.32544" lon="2.62142">
        <ele>665.8503418</ele>
        <time>2014-06-04T05:00:24Z</time>
      </trkpt>
      <trkpt lat="44.32549" lon="2.6213">
        <ele>666.3308105</ele>
        <time>2014-06-04T05:00:28Z</time>
      </trkpt>
      <trkpt lat="44.32556" lon="2.62114">
        <ele>664.888916</ele>
        <time>2014-06-04T05:00:33Z</time>
      </trkpt>
      <trkpt lat="44.32561" lon="2.62103">
        <ele>664.888916</ele>
        <time>2014-06-04T05:00:37Z</time>
      </trkpt>
      <trkpt lat="44.32573" lon="2.62087">
        <ele>663.4470215</ele>
        <time>2014-06-04T05:00:43Z</time>
      </trkpt>
      <trkpt lat="44.32583" lon="2.62075">
        <ele>662.9663086</ele>
        <time>2014-06-04T05:00:48Z</time>
      </trkpt>
      <trkpt lat="44.3259" lon="2.62064">
        <ele>662.005127</ele>
        <time>2014-06-04T05:00:52Z</time>
      </trkpt>
      <trkpt lat="44.32597" lon="2.62052">
        <ele>660.0822754</ele>
        <time>2014-06-04T05:00:56Z</time>
      </trkpt>
      <trkpt lat="44.32603" lon="2.6204">
        <ele>656.7177734</ele>
        <time>2014-06-04T05:01:00Z</time>
      </trkpt>
      <trkpt lat="44.32611" lon="2.62025">
        <ele>651.9111328</ele>
        <time>2014-06-04T05:01:05Z</time>
      </trkpt>
      <trkpt lat="44.32617" lon="2.62004">
        <ele>648.065918</ele>
        <time>2014-06-04T05:01:11Z</time>
      </trkpt>
      <trkpt lat="44.32626" lon="2.61985">
        <ele>642.7788086</ele>
        <time>2014-06-04T05:01:17Z</time>
      </trkpt>
      <trkpt lat="44.32635" lon="2.61966">
        <ele>639.8947754</ele>
        <time>2014-06-04T05:01:23Z</time>
      </trkpt>
      <trkpt lat="44.32642" lon="2.61951">
        <ele>635.5686035</ele>
        <time>2014-06-04T05:01:28Z</time>
      </trkpt>
      <trkpt lat="44.32647" lon="2.61936">
        <ele>632.6848145</ele>
        <time>2014-06-04T05:01:33Z</time>
      </trkpt>
      <trkpt lat="44.32653" lon="2.61918">
        <ele>628.3588867</ele>
        <time>2014-06-04T05:01:38Z</time>
      </trkpt>
      <trkpt lat="44.32656" lon="2.61906">
        <ele>627.8781738</ele>
        <time>2014-06-04T05:01:42Z</time>
      </trkpt>
      <trkpt lat="44.32658" lon="2.6189">
        <ele>629.3200684</ele>
        <time>2014-06-04T05:01:46Z</time>
      </trkpt>
      <trkpt lat="44.32661" lon="2.61873">
        <ele>631.2429199</ele>
        <time>2014-06-04T05:01:51Z</time>
      </trkpt>
      <trkpt lat="44.32667" lon="2.61853">
        <ele>632.6848145</ele>
        <time>2014-06-04T05:01:57Z</time>
      </trkpt>
      <trkpt lat="44.32669" lon="2.61831">
        <ele>635.0881348</ele>
        <time>2014-06-04T05:02:02Z</time>
      </trkpt>
      <trkpt lat="44.32673" lon="2.61812">
        <ele>637.0107422</ele>
        <time>2014-06-04T05:02:07Z</time>
      </trkpt>
      <trkpt lat="44.32675" lon="2.61796">
        <ele>639.4140625</ele>
        <time>2014-06-04T05:02:12Z</time>
      </trkpt>
      <trkpt lat="44.32677" lon="2.61782">
        <ele>640.3754883</ele>
        <time>2014-06-04T05:02:16Z</time>
      </trkpt>
      <trkpt lat="44.32676" lon="2.6176">
        <ele>647.1044922</ele>
        <time>2014-06-04T05:02:21Z</time>
      </trkpt>
      <trkpt lat="44.3268" lon="2.6174">
        <ele>649.0270996</ele>
        <time>2014-06-04T05:02:26Z</time>
      </trkpt>
      <trkpt lat="44.32684" lon="2.61724">
        <ele>650.4692383</ele>
        <time>2014-06-04T05:02:30Z</time>
      </trkpt>
      <trkpt lat="44.32687" lon="2.61706">
        <ele>652.3918457</ele>
        <time>2014-06-04T05:02:35Z</time>
      </trkpt>
      <trkpt lat="44.32692" lon="2.61688">
        <ele>653.3532715</ele>
        <time>2014-06-04T05:02:40Z</time>
      </trkpt>
      <trkpt lat="44.32697" lon="2.61669">
        <ele>653.8339844</ele>
        <time>2014-06-04T05:02:45Z</time>
      </trkpt>
      <trkpt lat="44.32701" lon="2.61649">
        <ele>655.7565918</ele>
        <time>2014-06-04T05:02:50Z</time>
      </trkpt>
      <trkpt lat="44.32703" lon="2.61628">
        <ele>658.1599121</ele>
        <time>2014-06-04T05:02:55Z</time>
      </trkpt>
      <trkpt lat="44.32705" lon="2.61606">
        <ele>658.6403809</ele>
        <time>2014-06-04T05:03:00Z</time>
      </trkpt>
      <trkpt lat="44.32708" lon="2.61586">
        <ele>662.005127</ele>
        <time>2014-06-04T05:03:05Z</time>
      </trkpt>
      <trkpt lat="44.32711" lon="2.61567">
        <ele>664.888916</ele>
        <time>2014-06-04T05:03:10Z</time>
      </trkpt>
      <trkpt lat="44.32715" lon="2.61547">
        <ele>667.2922363</ele>
        <time>2014-06-04T05:03:15Z</time>
      </trkpt>
      <trkpt lat="44.32718" lon="2.61524">
        <ele>668.2536621</ele>
        <time>2014-06-04T05:03:20Z</time>
      </trkpt>
      <trkpt lat="44.32723" lon="2.61501">
        <ele>669.6958008</ele>
        <time>2014-06-04T05:03:26Z</time>
      </trkpt>
      <trkpt lat="44.32727" lon="2.61482">
        <ele>670.1762695</ele>
        <time>2014-06-04T05:03:31Z</time>
      </trkpt>
      <trkpt lat="44.32733" lon="2.61465">
        <ele>669.6958008</ele>
        <time>2014-06-04T05:03:36Z</time>
      </trkpt>
      <trkpt lat="44.32739" lon="2.61451">
        <ele>667.7727051</ele>
        <time>2014-06-04T05:03:40Z</time>
      </trkpt>
      <trkpt lat="44.32741" lon="2.61435">
        <ele>667.2922363</ele>
        <time>2014-06-04T05:03:44Z</time>
      </trkpt>
      <trkpt lat="44.32745" lon="2.61416">
        <ele>663.9274902</ele>
        <time>2014-06-04T05:03:49Z</time>
      </trkpt>
      <trkpt lat="44.3275" lon="2.61401">
        <ele>662.4855957</ele>
        <time>2014-06-04T05:03:54Z</time>
      </trkpt>
      <trkpt lat="44.32751" lon="2.61399">
        <ele>661.0437012</ele>
        <time>2014-06-04T05:03:55Z</time>
      </trkpt>
      <trkpt lat="44.32762" lon="2.61367">
        <ele>661.0437012</ele>
        <time>2014-06-04T05:05:52Z</time>
      </trkpt>
      <trkpt lat="44.32763" lon="2.61366">
        <ele>661.0437012</ele>
        <time>2014-06-04T05:05:53Z</time>
      </trkpt>
      <trkpt lat="44.32763" lon="2.61365">
        <ele>661.0437012</ele>
        <time>2014-06-04T05:05:54Z</time>
      </trkpt>
      <trkpt lat="44.32768" lon="2.61351">
        <ele>659.1210938</ele>
        <time>2014-06-04T05:05:59Z</time>
      </trkpt>
      <trkpt lat="44.32774" lon="2.61334">
        <ele>658.6403809</ele>
        <time>2014-06-04T05:06:04Z</time>
      </trkpt>
      <trkpt lat="44.32775" lon="2.61331">
        <ele>658.6403809</ele>
        <time>2014-06-04T05:06:05Z</time>
      </trkpt>
      <trkpt lat="44.32776" lon="2.61328">
        <ele>659.1210938</ele>
        <time>2014-06-04T05:06:09Z</time>
      </trkpt>
      <trkpt lat="44.32782" lon="2.61308">
        <ele>661.0437012</ele>
        <time>2014-06-04T05:06:15Z</time>
      </trkpt>
      <trkpt lat="44.32789" lon="2.61286">
        <ele>660.0822754</ele>
        <time>2014-06-04T05:06:21Z</time>
      </trkpt>
      <trkpt lat="44.32795" lon="2.6127">
        <ele>660.0822754</ele>
        <time>2014-06-04T05:06:26Z</time>
      </trkpt>
      <trkpt lat="44.32801" lon="2.61256">
        <ele>658.6403809</ele>
        <time>2014-06-04T05:06:30Z</time>
      </trkpt>
      <trkpt lat="44.32808" lon="2.61242">
        <ele>657.6791992</ele>
        <time>2014-06-04T05:06:34Z</time>
      </trkpt>
      <trkpt lat="44.32814" lon="2.6123">
        <ele>656.2370605</ele>
        <time>2014-06-04T05:06:38Z</time>
      </trkpt>
      <trkpt lat="44.32821" lon="2.61219">
        <ele>654.795166</ele>
        <time>2014-06-04T05:06:42Z</time>
      </trkpt>
      <trkpt lat="44.32827" lon="2.61209">
        <ele>652.8725586</ele>
        <time>2014-06-04T05:06:46Z</time>
      </trkpt>
      <trkpt lat="44.32838" lon="2.61196">
        <ele>649.9885254</ele>
        <time>2014-06-04T05:06:51Z</time>
      </trkpt>
      <trkpt lat="44.32845" lon="2.61184">
        <ele>649.0270996</ele>
        <time>2014-06-04T05:06:55Z</time>
      </trkpt>
      <trkpt lat="44.32853" lon="2.6117">
        <ele>650.949707</ele>
        <time>2014-06-04T05:07:00Z</time>
      </trkpt>
      <trkpt lat="44.3286" lon="2.61158">
        <ele>651.9111328</ele>
        <time>2014-06-04T05:07:04Z</time>
      </trkpt>
      <trkpt lat="44.32871" lon="2.61135">
        <ele>653.8339844</ele>
        <time>2014-06-04T05:07:11Z</time>
      </trkpt>
      <trkpt lat="44.32877" lon="2.61124">
        <ele>654.3146973</ele>
        <time>2014-06-04T05:07:15Z</time>
      </trkpt>
      <trkpt lat="44.32887" lon="2.61108">
        <ele>656.2370605</ele>
        <time>2014-06-04T05:07:20Z</time>
      </trkpt>
      <trkpt lat="44.32899" lon="2.61091">
        <ele>656.2370605</ele>
        <time>2014-06-04T05:07:26Z</time>
      </trkpt>
      <trkpt lat="44.3291" lon="2.61076">
        <ele>655.7565918</ele>
        <time>2014-06-04T05:07:32Z</time>
      </trkpt>
      <trkpt lat="44.3292" lon="2.61063">
        <ele>655.2758789</ele>
        <time>2014-06-04T05:07:37Z</time>
      </trkpt>
      <trkpt lat="44.32931" lon="2.6105">
        <ele>654.795166</ele>
        <time>2014-06-04T05:07:42Z</time>
      </trkpt>
      <trkpt lat="44.3294" lon="2.61042">
        <ele>653.3532715</ele>
        <time>2014-06-04T05:07:46Z</time>
      </trkpt>
      <trkpt lat="44.32954" lon="2.61028">
        <ele>651.4304199</ele>
        <time>2014-06-04T05:07:52Z</time>
      </trkpt>
      <trkpt lat="44.32967" lon="2.61014">
        <ele>649.0270996</ele>
        <time>2014-06-04T05:07:58Z</time>
      </trkpt>
      <trkpt lat="44.32977" lon="2.61004">
        <ele>647.5852051</ele>
        <time>2014-06-04T05:08:03Z</time>
      </trkpt>
      <trkpt lat="44.32991" lon="2.60989">
        <ele>645.6625977</ele>
        <time>2014-06-04T05:08:09Z</time>
      </trkpt>
      <trkpt lat="44.33001" lon="2.60981">
        <ele>644.2207031</ele>
        <time>2014-06-04T05:08:13Z</time>
      </trkpt>
      <trkpt lat="44.33008" lon="2.60975">
        <ele>644.7011719</ele>
        <time>2014-06-04T05:08:17Z</time>
      </trkpt>
      <trkpt lat="44.33016" lon="2.60969">
        <ele>644.7011719</ele>
        <time>2014-06-04T05:08:21Z</time>
      </trkpt>
      <trkpt lat="44.33027" lon="2.60961">
        <ele>645.1818848</ele>
        <time>2014-06-04T05:08:25Z</time>
      </trkpt>
      <trkpt lat="44.33044" lon="2.60952">
        <ele>645.6625977</ele>
        <time>2014-06-04T05:08:31Z</time>
      </trkpt>
      <trkpt lat="44.33054" lon="2.60945">
        <ele>645.1818848</ele>
        <time>2014-06-04T05:08:35Z</time>
      </trkpt>
      <trkpt lat="44.33068" lon="2.60935">
        <ele>643.7399902</ele>
        <time>2014-06-04T05:08:40Z</time>
      </trkpt>
      <trkpt lat="44.33078" lon="2.60923">
        <ele>641.8173828</ele>
        <time>2014-06-04T05:08:45Z</time>
      </trkpt>
      <trkpt lat="44.33089" lon="2.6091">
        <ele>639.8947754</ele>
        <time>2014-06-04T05:08:50Z</time>
      </trkpt>
      <trkpt lat="44.33099" lon="2.60895">
        <ele>638.4528809</ele>
        <time>2014-06-04T05:08:55Z</time>
      </trkpt>
      <trkpt lat="44.33109" lon="2.60882">
        <ele>637.4914551</ele>
        <time>2014-06-04T05:09:00Z</time>
      </trkpt>
      <trkpt lat="44.33123" lon="2.60867">
        <ele>637.972168</ele>
        <time>2014-06-04T05:09:06Z</time>
      </trkpt>
      <trkpt lat="44.3314" lon="2.60851">
        <ele>638.4528809</ele>
        <time>2014-06-04T05:09:13Z</time>
      </trkpt>
      <trkpt lat="44.33154" lon="2.60838">
        <ele>639.4140625</ele>
        <time>2014-06-04T05:09:19Z</time>
      </trkpt>
      <trkpt lat="44.33169" lon="2.60825">
        <ele>639.4140625</ele>
        <time>2014-06-04T05:09:25Z</time>
      </trkpt>
      <trkpt lat="44.33186" lon="2.60808">
        <ele>639.4140625</ele>
        <time>2014-06-04T05:09:32Z</time>
      </trkpt>
      <trkpt lat="44.33196" lon="2.60789">
        <ele>637.4914551</ele>
        <time>2014-06-04T05:09:38Z</time>
      </trkpt>
      <trkpt lat="44.33204" lon="2.60774">
        <ele>637.972168</ele>
        <time>2014-06-04T05:09:43Z</time>
      </trkpt>
      <trkpt lat="44.33213" lon="2.60758">
        <ele>636.5302734</ele>
        <time>2014-06-04T05:09:48Z</time>
      </trkpt>
      <trkpt lat="44.3322" lon="2.60736">
        <ele>634.126709</ele>
        <time>2014-06-04T05:09:54Z</time>
      </trkpt>
      <trkpt lat="44.33226" lon="2.6072">
        <ele>632.6848145</ele>
        <time>2014-06-04T05:09:58Z</time>
      </trkpt>
      <trkpt lat="44.33236" lon="2.60704">
        <ele>630.762207</ele>
        <time>2014-06-04T05:10:03Z</time>
      </trkpt>
      <trkpt lat="44.33247" lon="2.6069">
        <ele>628.3588867</ele>
        <time>2014-06-04T05:10:08Z</time>
      </trkpt>
      <trkpt lat="44.33256" lon="2.60674">
        <ele>626.4362793</ele>
        <time>2014-06-04T05:10:13Z</time>
      </trkpt>
      <trkpt lat="44.33266" lon="2.60659">
        <ele>624.032959</ele>
        <time>2014-06-04T05:10:18Z</time>
      </trkpt>
      <trkpt lat="44.33279" lon="2.60647">
        <ele>621.1491699</ele>
        <time>2014-06-04T05:10:23Z</time>
      </trkpt>
      <trkpt lat="44.33289" lon="2.60638">
        <ele>619.2263184</ele>
        <time>2014-06-04T05:10:27Z</time>
      </trkpt>
      <trkpt lat="44.333" lon="2.60629">
        <ele>617.7841797</ele>
        <time>2014-06-04T05:10:31Z</time>
      </trkpt>
      <trkpt lat="44.33312" lon="2.60623">
        <ele>615.3811035</ele>
        <time>2014-06-04T05:10:35Z</time>
      </trkpt>
      <trkpt lat="44.33315" lon="2.60621">
        <ele>615.3811035</ele>
        <time>2014-06-04T05:10:36Z</time>
      </trkpt>
      <trkpt lat="44.33332" lon="2.60618">
        <ele>612.9777832</ele>
        <time>2014-06-04T05:10:41Z</time>
      </trkpt>
      <trkpt lat="44.33341" lon="2.60616">
        <ele>612.0166016</ele>
        <time>2014-06-04T05:10:44Z</time>
      </trkpt>
      <trkpt lat="44.33359" lon="2.6061">
        <ele>610.09375</ele>
        <time>2014-06-04T05:10:50Z</time>
      </trkpt>
      <trkpt lat="44.33374" lon="2.60607">
        <ele>608.6518555</ele>
        <time>2014-06-04T05:10:55Z</time>
      </trkpt>
      <trkpt lat="44.3339" lon="2.60608">
        <ele>607.2099609</ele>
        <time>2014-06-04T05:11:00Z</time>
      </trkpt>
      <trkpt lat="44.33403" lon="2.60612">
        <ele>606.729248</ele>
        <time>2014-06-04T05:11:04Z</time>
      </trkpt>
      <trkpt lat="44.33413" lon="2.60611">
        <ele>606.2485352</ele>
        <time>2014-06-04T05:11:08Z</time>
      </trkpt>
      <trkpt lat="44.33427" lon="2.60611">
        <ele>607.2099609</ele>
        <time>2014-06-04T05:11:13Z</time>
      </trkpt>
      <trkpt lat="44.33433" lon="2.60611">
        <ele>607.2099609</ele>
        <time>2014-06-04T05:11:15Z</time>
      </trkpt>
      <trkpt lat="44.33444" lon="2.60627">
        <ele>605.7680664</ele>
        <time>2014-06-04T05:11:20Z</time>
      </trkpt>
      <trkpt lat="44.33448" lon="2.60647">
        <ele>604.8066406</ele>
        <time>2014-06-04T05:11:25Z</time>
      </trkpt>
      <trkpt lat="44.33452" lon="2.60664">
        <ele>604.8066406</ele>
        <time>2014-06-04T05:11:30Z</time>
      </trkpt>
      <trkpt lat="44.33454" lon="2.60682">
        <ele>604.8066406</ele>
        <time>2014-06-04T05:11:35Z</time>
      </trkpt>
      <trkpt lat="44.33455" lon="2.60696">
        <ele>604.8066406</ele>
        <time>2014-06-04T05:11:39Z</time>
      </trkpt>
      <trkpt lat="44.33459" lon="2.60717">
        <ele>603.364502</ele>
        <time>2014-06-04T05:11:45Z</time>
      </trkpt>
      <trkpt lat="44.33468" lon="2.60732">
        <ele>604.3261719</ele>
        <time>2014-06-04T05:11:50Z</time>
      </trkpt>
      <trkpt lat="44.33477" lon="2.6074">
        <ele>604.3261719</ele>
        <time>2014-06-04T05:11:54Z</time>
      </trkpt>
      <trkpt lat="44.33488" lon="2.60745">
        <ele>605.2873535</ele>
        <time>2014-06-04T05:11:58Z</time>
      </trkpt>
      <trkpt lat="44.33503" lon="2.60758">
        <ele>604.8066406</ele>
        <time>2014-06-04T05:12:04Z</time>
      </trkpt>
      <trkpt lat="44.33511" lon="2.60775">
        <ele>604.3261719</ele>
        <time>2014-06-04T05:12:09Z</time>
      </trkpt>
      <trkpt lat="44.33514" lon="2.60798">
        <ele>604.8066406</ele>
        <time>2014-06-04T05:12:15Z</time>
      </trkpt>
      <trkpt lat="44.33516" lon="2.60816">
        <ele>605.7680664</ele>
        <time>2014-06-04T05:12:20Z</time>
      </trkpt>
      <trkpt lat="44.33519" lon="2.60835">
        <ele>605.7680664</ele>
        <time>2014-06-04T05:12:25Z</time>
      </trkpt>
      <trkpt lat="44.33523" lon="2.60852">
        <ele>605.7680664</ele>
        <time>2014-06-04T05:12:30Z</time>
      </trkpt>
      <trkpt lat="44.33529" lon="2.60869">
        <ele>604.3261719</ele>
        <time>2014-06-04T05:12:35Z</time>
      </trkpt>
      <trkpt lat="44.33534" lon="2.60882">
        <ele>603.364502</ele>
        <time>2014-06-04T05:12:39Z</time>
      </trkpt>
      <trkpt lat="44.33539" lon="2.609">
        <ele>601.9226074</ele>
        <time>2014-06-04T05:12:44Z</time>
      </trkpt>
      <trkpt lat="44.33543" lon="2.60917">
        <ele>600.4807129</ele>
        <time>2014-06-04T05:12:49Z</time>
      </trkpt>
      <trkpt lat="44.33546" lon="2.60938">
        <ele>600.9611816</ele>
        <time>2014-06-04T05:12:55Z</time>
      </trkpt>
      <trkpt lat="44.3355" lon="2.60952">
        <ele>600.9611816</ele>
        <time>2014-06-04T05:12:59Z</time>
      </trkpt>
      <trkpt lat="44.33554" lon="2.60972">
        <ele>599.5192871</ele>
        <time>2014-06-04T05:13:04Z</time>
      </trkpt>
      <trkpt lat="44.33559" lon="2.60986">
        <ele>597.1159668</ele>
        <time>2014-06-04T05:13:08Z</time>
      </trkpt>
      <trkpt lat="44.33568" lon="2.61003">
        <ele>593.7514648</ele>
        <time>2014-06-04T05:13:13Z</time>
      </trkpt>
      <trkpt lat="44.33581" lon="2.61018">
        <ele>592.7902832</ele>
        <time>2014-06-04T05:13:19Z</time>
      </trkpt>
      <trkpt lat="44.33591" lon="2.61027">
        <ele>593.270752</ele>
        <time>2014-06-04T05:13:23Z</time>
      </trkpt>
      <trkpt lat="44.33604" lon="2.61036">
        <ele>593.270752</ele>
        <time>2014-06-04T05:13:28Z</time>
      </trkpt>
      <trkpt lat="44.33616" lon="2.61046">
        <ele>594.7126465</ele>
        <time>2014-06-04T05:13:33Z</time>
      </trkpt>
      <trkpt lat="44.33626" lon="2.61061">
        <ele>595.1933594</ele>
        <time>2014-06-04T05:13:38Z</time>
      </trkpt>
      <trkpt lat="44.33631" lon="2.61082">
        <ele>596.1547852</ele>
        <time>2014-06-04T05:13:44Z</time>
      </trkpt>
      <trkpt lat="44.33634" lon="2.61099">
        <ele>597.5966797</ele>
        <time>2014-06-04T05:13:49Z</time>
      </trkpt>
      <trkpt lat="44.33634" lon="2.61115">
        <ele>599.0385742</ele>
        <time>2014-06-04T05:13:54Z</time>
      </trkpt>
      <trkpt lat="44.33635" lon="2.61131">
        <ele>600.4807129</ele>
        <time>2014-06-04T05:13:59Z</time>
      </trkpt>
      <trkpt lat="44.33639" lon="2.61147">
        <ele>601.4418945</ele>
        <time>2014-06-04T05:14:04Z</time>
      </trkpt>
      <trkpt lat="44.33644" lon="2.61161">
        <ele>602.4030762</ele>
        <time>2014-06-04T05:14:09Z</time>
      </trkpt>
      <trkpt lat="44.33649" lon="2.61171">
        <ele>602.4030762</ele>
        <time>2014-06-04T05:14:13Z</time>
      </trkpt>
      <trkpt lat="44.33658" lon="2.61188">
        <ele>601.9226074</ele>
        <time>2014-06-04T05:14:20Z</time>
      </trkpt>
      <trkpt lat="44.33667" lon="2.61203">
        <ele>602.8837891</ele>
        <time>2014-06-04T05:14:26Z</time>
      </trkpt>
      <trkpt lat="44.33671" lon="2.61217">
        <ele>603.364502</ele>
        <time>2014-06-04T05:14:30Z</time>
      </trkpt>
      <trkpt lat="44.3367" lon="2.61235">
        <ele>603.364502</ele>
        <time>2014-06-04T05:14:35Z</time>
      </trkpt>
      <trkpt lat="44.33667" lon="2.61253">
        <ele>604.3261719</ele>
        <time>2014-06-04T05:14:41Z</time>
      </trkpt>
      <trkpt lat="44.33662" lon="2.6127">
        <ele>605.7680664</ele>
        <time>2014-06-04T05:14:46Z</time>
      </trkpt>
      <trkpt lat="44.33655" lon="2.6129">
        <ele>608.1713867</ele>
        <time>2014-06-04T05:14:52Z</time>
      </trkpt>
      <trkpt lat="44.33649" lon="2.61307">
        <ele>608.1713867</ele>
        <time>2014-06-04T05:14:57Z</time>
      </trkpt>
      <trkpt lat="44.33644" lon="2.61322">
        <ele>608.1713867</ele>
        <time>2014-06-04T05:15:02Z</time>
      </trkpt>
      <trkpt lat="44.3364" lon="2.61334">
        <ele>608.6518555</ele>
        <time>2014-06-04T05:15:06Z</time>
      </trkpt>
      <trkpt lat="44.33634" lon="2.61349">
        <ele>609.1325684</ele>
        <time>2014-06-04T05:15:11Z</time>
      </trkpt>
      <trkpt lat="44.33629" lon="2.61365">
        <ele>611.0551758</ele>
        <time>2014-06-04T05:15:16Z</time>
      </trkpt>
      <trkpt lat="44.33624" lon="2.6138">
        <ele>612.4970703</ele>
        <time>2014-06-04T05:15:21Z</time>
      </trkpt>
      <trkpt lat="44.33618" lon="2.61398">
        <ele>612.9777832</ele>
        <time>2014-06-04T05:15:27Z</time>
      </trkpt>
      <trkpt lat="44.33616" lon="2.61415">
        <ele>613.4584961</ele>
        <time>2014-06-04T05:15:32Z</time>
      </trkpt>
      <trkpt lat="44.3361" lon="2.61432">
        <ele>613.9389648</ele>
        <time>2014-06-04T05:15:37Z</time>
      </trkpt>
      <trkpt lat="44.33606" lon="2.61443">
        <ele>613.9389648</ele>
        <time>2014-06-04T05:15:41Z</time>
      </trkpt>
      <trkpt lat="44.33601" lon="2.61454">
        <ele>615.3811035</ele>
        <time>2014-06-04T05:15:45Z</time>
      </trkpt>
      <trkpt lat="44.33596" lon="2.6147">
        <ele>616.822998</ele>
        <time>2014-06-04T05:15:50Z</time>
      </trkpt>
      <trkpt lat="44.3359" lon="2.61485">
        <ele>617.7841797</ele>
        <time>2014-06-04T05:15:55Z</time>
      </trkpt>
      <trkpt lat="44.33586" lon="2.615">
        <ele>618.2648926</ele>
        <time>2014-06-04T05:16:00Z</time>
      </trkpt>
      <trkpt lat="44.3358" lon="2.61519">
        <ele>619.2263184</ele>
        <time>2014-06-04T05:16:07Z</time>
      </trkpt>
      <trkpt lat="44.33576" lon="2.61531">
        <ele>620.668457</ele>
        <time>2014-06-04T05:16:11Z</time>
      </trkpt>
      <trkpt lat="44.3357" lon="2.6155">
        <ele>622.5910645</ele>
        <time>2014-06-04T05:16:17Z</time>
      </trkpt>
      <trkpt lat="44.33565" lon="2.61571">
        <ele>623.0717773</ele>
        <time>2014-06-04T05:16:24Z</time>
      </trkpt>
      <trkpt lat="44.33561" lon="2.61586">
        <ele>623.0717773</ele>
        <time>2014-06-04T05:16:29Z</time>
      </trkpt>
      <trkpt lat="44.33557" lon="2.61599">
        <ele>623.0717773</ele>
        <time>2014-06-04T05:16:33Z</time>
      </trkpt>
      <trkpt lat="44.33552" lon="2.61616">
        <ele>623.5524902</ele>
        <time>2014-06-04T05:16:38Z</time>
      </trkpt>
      <trkpt lat="44.33548" lon="2.61631">
        <ele>624.032959</ele>
        <time>2014-06-04T05:16:43Z</time>
      </trkpt>
      <trkpt lat="44.33545" lon="2.61644">
        <ele>624.9943848</ele>
        <time>2014-06-04T05:16:47Z</time>
      </trkpt>
      <trkpt lat="44.33542" lon="2.61663">
        <ele>624.9943848</ele>
        <time>2014-06-04T05:16:53Z</time>
      </trkpt>
      <trkpt lat="44.3354" lon="2.6168">
        <ele>624.9943848</ele>
        <time>2014-06-04T05:16:58Z</time>
      </trkpt>
      <trkpt lat="44.33537" lon="2.61705">
        <ele>627.3977051</ele>
        <time>2014-06-04T05:17:05Z</time>
      </trkpt>
      <trkpt lat="44.33535" lon="2.61724">
        <ele>628.3588867</ele>
        <time>2014-06-04T05:17:11Z</time>
      </trkpt>
      <trkpt lat="44.33531" lon="2.6175">
        <ele>631.2429199</ele>
        <time>2014-06-04T05:17:19Z</time>
      </trkpt>
      <trkpt lat="44.3353" lon="2.61763">
        <ele>631.7233887</ele>
        <time>2014-06-04T05:17:23Z</time>
      </trkpt>
      <trkpt lat="44.3353" lon="2.61783">
        <ele>632.6848145</ele>
        <time>2014-06-04T05:17:29Z</time>
      </trkpt>
      <trkpt lat="44.33533" lon="2.61803">
        <ele>632.6848145</ele>
        <time>2014-06-04T05:17:35Z</time>
      </trkpt>
      <trkpt lat="44.33538" lon="2.61821">
        <ele>632.2041016</ele>
        <time>2014-06-04T05:17:41Z</time>
      </trkpt>
      <trkpt lat="44.33544" lon="2.61838">
        <ele>631.7233887</ele>
        <time>2014-06-04T05:17:47Z</time>
      </trkpt>
      <trkpt lat="44.33553" lon="2.61854">
        <ele>632.6848145</ele>
        <time>2014-06-04T05:17:53Z</time>
      </trkpt>
      <trkpt lat="44.33554" lon="2.61856">
        <ele>632.2041016</ele>
        <time>2014-06-04T05:17:54Z</time>
      </trkpt>
      <trkpt lat="44.33565" lon="2.61868">
        <ele>631.7233887</ele>
        <time>2014-06-04T05:18:00Z</time>
      </trkpt>
      <trkpt lat="44.33572" lon="2.61875">
        <ele>632.2041016</ele>
        <time>2014-06-04T05:18:04Z</time>
      </trkpt>
      <trkpt lat="44.3358" lon="2.61881">
        <ele>632.6848145</ele>
        <time>2014-06-04T05:18:08Z</time>
      </trkpt>
      <trkpt lat="44.3359" lon="2.61885">
        <ele>633.6459961</ele>
        <time>2014-06-04T05:18:12Z</time>
      </trkpt>
      <trkpt lat="44.33599" lon="2.61892">
        <ele>635.0881348</ele>
        <time>2014-06-04T05:18:17Z</time>
      </trkpt>
      <trkpt lat="44.33614" lon="2.61899">
        <ele>635.5686035</ele>
        <time>2014-06-04T05:18:23Z</time>
      </trkpt>
      <trkpt lat="44.33629" lon="2.61907">
        <ele>635.5686035</ele>
        <time>2014-06-04T05:18:29Z</time>
      </trkpt>
      <trkpt lat="44.33647" lon="2.61918">
        <ele>636.5302734</ele>
        <time>2014-06-04T05:18:36Z</time>
      </trkpt>
      <trkpt lat="44.3366" lon="2.61931">
        <ele>635.5686035</ele>
        <time>2014-06-04T05:18:42Z</time>
      </trkpt>
      <trkpt lat="44.33668" lon="2.61943">
        <ele>635.5686035</ele>
        <time>2014-06-04T05:18:46Z</time>
      </trkpt>
      <trkpt lat="44.33677" lon="2.61957">
        <ele>635.5686035</ele>
        <time>2014-06-04T05:18:51Z</time>
      </trkpt>
      <trkpt lat="44.33684" lon="2.61973">
        <ele>635.5686035</ele>
        <time>2014-06-04T05:18:56Z</time>
      </trkpt>
      <trkpt lat="44.33691" lon="2.61989">
        <ele>637.4914551</ele>
        <time>2014-06-04T05:19:01Z</time>
      </trkpt>
      <trkpt lat="44.33695" lon="2.62006">
        <ele>638.9335938</ele>
        <time>2014-06-04T05:19:06Z</time>
      </trkpt>
      <trkpt lat="44.33695" lon="2.62032">
        <ele>637.4914551</ele>
        <time>2014-06-04T05:19:13Z</time>
      </trkpt>
      <trkpt lat="44.33697" lon="2.62053">
        <ele>638.4528809</ele>
        <time>2014-06-04T05:19:19Z</time>
      </trkpt>
      <trkpt lat="44.33698" lon="2.62071">
        <ele>639.4140625</ele>
        <time>2014-06-04T05:19:24Z</time>
      </trkpt>
      <trkpt lat="44.33702" lon="2.62092">
        <ele>641.3366699</ele>
        <time>2014-06-04T05:19:31Z</time>
      </trkpt>
      <trkpt lat="44.33704" lon="2.62109">
        <ele>642.7788086</ele>
        <time>2014-06-04T05:19:36Z</time>
      </trkpt>
      <trkpt lat="44.33705" lon="2.62127">
        <ele>644.2207031</ele>
        <time>2014-06-04T05:19:41Z</time>
      </trkpt>
      <trkpt lat="44.33704" lon="2.62144">
        <ele>644.7011719</ele>
        <time>2014-06-04T05:19:46Z</time>
      </trkpt>
      <trkpt lat="44.33702" lon="2.62164">
        <ele>645.6625977</ele>
        <time>2014-06-04T05:19:52Z</time>
      </trkpt>
      <trkpt lat="44.33698" lon="2.62178">
        <ele>646.6240234</ele>
        <time>2014-06-04T05:19:57Z</time>
      </trkpt>
      <trkpt lat="44.33694" lon="2.62192">
        <ele>647.5852051</ele>
        <time>2014-06-04T05:20:02Z</time>
      </trkpt>
      <trkpt lat="44.33689" lon="2.62208">
        <ele>648.5463867</ele>
        <time>2014-06-04T05:20:08Z</time>
      </trkpt>
      <trkpt lat="44.33683" lon="2.62226">
        <ele>648.5463867</ele>
        <time>2014-06-04T05:20:14Z</time>
      </trkpt>
      <trkpt lat="44.33679" lon="2.62241">
        <ele>649.9885254</ele>
        <time>2014-06-04T05:20:19Z</time>
      </trkpt>
      <trkpt lat="44.33675" lon="2.62255">
        <ele>651.4304199</ele>
        <time>2014-06-04T05:20:24Z</time>
      </trkpt>
      <trkpt lat="44.3367" lon="2.62272">
        <ele>652.3918457</ele>
        <time>2014-06-04T05:20:30Z</time>
      </trkpt>
      <trkpt lat="44.33666" lon="2.62286">
        <ele>653.8339844</ele>
        <time>2014-06-04T05:20:35Z</time>
      </trkpt>
      <trkpt lat="44.3366" lon="2.62303">
        <ele>655.2758789</ele>
        <time>2014-06-04T05:20:41Z</time>
      </trkpt>
      <trkpt lat="44.33656" lon="2.62319">
        <ele>656.7177734</ele>
        <time>2014-06-04T05:20:47Z</time>
      </trkpt>
      <trkpt lat="44.3365" lon="2.62337">
        <ele>658.1599121</ele>
        <time>2014-06-04T05:20:53Z</time>
      </trkpt>
      <trkpt lat="44.33647" lon="2.62354">
        <ele>658.6403809</ele>
        <time>2014-06-04T05:20:59Z</time>
      </trkpt>
      <trkpt lat="44.33645" lon="2.62377">
        <ele>659.6018066</ele>
        <time>2014-06-04T05:21:06Z</time>
      </trkpt>
      <trkpt lat="44.33645" lon="2.62388">
        <ele>660.0822754</ele>
        <time>2014-06-04T05:21:09Z</time>
      </trkpt>
      <trkpt lat="44.33644" lon="2.62406">
        <ele>659.1210938</ele>
        <time>2014-06-04T05:21:14Z</time>
      </trkpt>
      <trkpt lat="44.33644" lon="2.6242">
        <ele>658.1599121</ele>
        <time>2014-06-04T05:21:18Z</time>
      </trkpt>
      <trkpt lat="44.33644" lon="2.62434">
        <ele>656.2370605</ele>
        <time>2014-06-04T05:21:22Z</time>
      </trkpt>
      <trkpt lat="44.33645" lon="2.6244">
        <ele>655.2758789</ele>
        <time>2014-06-04T05:21:24Z</time>
      </trkpt>
      <trkpt lat="44.33647" lon="2.62456">
        <ele>654.795166</ele>
        <time>2014-06-04T05:21:29Z</time>
      </trkpt>
      <trkpt lat="44.33649" lon="2.62471">
        <ele>655.2758789</ele>
        <time>2014-06-04T05:21:34Z</time>
      </trkpt>
      <trkpt lat="44.3365" lon="2.62481">
        <ele>656.2370605</ele>
        <time>2014-06-04T05:21:37Z</time>
      </trkpt>
      <trkpt lat="44.3365" lon="2.62499">
        <ele>657.1984863</ele>
        <time>2014-06-04T05:21:42Z</time>
      </trkpt>
      <trkpt lat="44.3365" lon="2.62516">
        <ele>657.1984863</ele>
        <time>2014-06-04T05:21:47Z</time>
      </trkpt>
      <trkpt lat="44.33652" lon="2.62536">
        <ele>656.7177734</ele>
        <time>2014-06-04T05:21:53Z</time>
      </trkpt>
      <trkpt lat="44.33653" lon="2.6255">
        <ele>656.7177734</ele>
        <time>2014-06-04T05:21:57Z</time>
      </trkpt>
      <trkpt lat="44.33656" lon="2.62574">
        <ele>657.6791992</ele>
        <time>2014-06-04T05:22:03Z</time>
      </trkpt>
      <trkpt lat="44.33657" lon="2.62594">
        <ele>660.0822754</ele>
        <time>2014-06-04T05:22:08Z</time>
      </trkpt>
      <trkpt lat="44.33657" lon="2.62617">
        <ele>663.9274902</ele>
        <time>2014-06-04T05:22:14Z</time>
      </trkpt>
      <trkpt lat="44.33655" lon="2.62634">
        <ele>665.8503418</ele>
        <time>2014-06-04T05:22:19Z</time>
      </trkpt>
      <trkpt lat="44.33652" lon="2.62645">
        <ele>667.2922363</ele>
        <time>2014-06-04T05:22:23Z</time>
      </trkpt>
      <trkpt lat="44.3364" lon="2.62653">
        <ele>666.8115234</ele>
        <time>2014-06-04T05:22:29Z</time>
      </trkpt>
      <trkpt lat="44.33628" lon="2.6265">
        <ele>666.3308105</ele>
        <time>2014-06-04T05:22:34Z</time>
      </trkpt>
      <trkpt lat="44.33619" lon="2.62649">
        <ele>664.4082031</ele>
        <time>2014-06-04T05:22:38Z</time>
      </trkpt>
      <trkpt lat="44.33616" lon="2.62664">
        <ele>664.888916</ele>
        <time>2014-06-04T05:22:43Z</time>
      </trkpt>
      <trkpt lat="44.33616" lon="2.62668">
        <ele>665.3696289</ele>
        <time>2014-06-04T05:22:44Z</time>
      </trkpt>
      <trkpt lat="44.33614" lon="2.62691">
        <ele>666.3308105</ele>
        <time>2014-06-04T05:22:50Z</time>
      </trkpt>
      <trkpt lat="44.33615" lon="2.6271">
        <ele>668.734375</ele>
        <time>2014-06-04T05:22:56Z</time>
      </trkpt>
      <trkpt lat="44.33611" lon="2.6273">
        <ele>668.734375</ele>
        <time>2014-06-04T05:23:01Z</time>
      </trkpt>
      <trkpt lat="44.33611" lon="2.62736">
        <ele>668.2536621</ele>
        <time>2014-06-04T05:23:03Z</time>
      </trkpt>
      <trkpt lat="44.33625" lon="2.62744">
        <ele>669.6958008</ele>
        <time>2014-06-04T05:23:09Z</time>
      </trkpt>
      <trkpt lat="44.33643" lon="2.62743">
        <ele>669.6958008</ele>
        <time>2014-06-04T05:23:15Z</time>
      </trkpt>
      <trkpt lat="44.33646" lon="2.62742">
        <ele>669.2150879</ele>
        <time>2014-06-04T05:23:16Z</time>
      </trkpt>
      <trkpt lat="44.33662" lon="2.62747">
        <ele>668.2536621</ele>
        <time>2014-06-04T05:23:22Z</time>
      </trkpt>
      <trkpt lat="44.33673" lon="2.62751">
        <ele>668.2536621</ele>
        <time>2014-06-04T05:23:27Z</time>
      </trkpt>
      <trkpt lat="44.33678" lon="2.62754">
        <ele>668.2536621</ele>
        <time>2014-06-04T05:23:29Z</time>
      </trkpt>
      <trkpt lat="44.33679" lon="2.6277">
        <ele>668.2536621</ele>
        <time>2014-06-04T05:23:34Z</time>
      </trkpt>
      <trkpt lat="44.33675" lon="2.62779">
        <ele>667.7727051</ele>
        <time>2014-06-04T05:23:37Z</time>
      </trkpt>
      <trkpt lat="44.33663" lon="2.62787">
        <ele>667.7727051</ele>
        <time>2014-06-04T05:23:42Z</time>
      </trkpt>
      <trkpt lat="44.33644" lon="2.62796">
        <ele>665.3696289</ele>
        <time>2014-06-04T05:23:49Z</time>
      </trkpt>
      <trkpt lat="44.33625" lon="2.628">
        <ele>663.9274902</ele>
        <time>2014-06-04T05:23:55Z</time>
      </trkpt>
      <trkpt lat="44.33612" lon="2.62803">
        <ele>662.005127</ele>
        <time>2014-06-04T05:24:00Z</time>
      </trkpt>
      <trkpt lat="44.33602" lon="2.62802">
        <ele>660.0822754</ele>
        <time>2014-06-04T05:24:04Z</time>
      </trkpt>
      <trkpt lat="44.33588" lon="2.62807">
        <ele>655.7565918</ele>
        <time>2014-06-04T05:24:09Z</time>
      </trkpt>
      <trkpt lat="44.33574" lon="2.62817">
        <ele>652.3918457</ele>
        <time>2014-06-04T05:24:14Z</time>
      </trkpt>
      <trkpt lat="44.33571" lon="2.62822">
        <ele>651.4304199</ele>
        <time>2014-06-04T05:24:15Z</time>
      </trkpt>
      <trkpt lat="44.33559" lon="2.62845">
        <ele>649.5078125</ele>
        <time>2014-06-04T05:24:21Z</time>
      </trkpt>
      <trkpt lat="44.33549" lon="2.62861">
        <ele>648.5463867</ele>
        <time>2014-06-04T05:24:26Z</time>
      </trkpt>
      <trkpt lat="44.33543" lon="2.62878">
        <ele>647.5852051</ele>
        <time>2014-06-04T05:24:31Z</time>
      </trkpt>
      <trkpt lat="44.33543" lon="2.62881">
        <ele>647.1044922</ele>
        <time>2014-06-04T05:24:32Z</time>
      </trkpt>
      <trkpt lat="44.33549" lon="2.62894">
        <ele>646.1433105</ele>
        <time>2014-06-04T05:24:36Z</time>
      </trkpt>
      <trkpt lat="44.33556" lon="2.62906">
        <ele>645.1818848</ele>
        <time>2014-06-04T05:24:41Z</time>
      </trkpt>
      <trkpt lat="44.33563" lon="2.62914">
        <ele>644.2207031</ele>
        <time>2014-06-04T05:24:45Z</time>
      </trkpt>
      <trkpt lat="44.33565" lon="2.6292">
        <ele>644.2207031</ele>
        <time>2014-06-04T05:24:49Z</time>
      </trkpt>
      <trkpt lat="44.33567" lon="2.62924">
        <ele>644.7011719</ele>
        <time>2014-06-04T05:24:52Z</time>
      </trkpt>
    </trkseg>
  </trk>
</gpx>